<?xml version="1.0" encoding="UTF-8"?><gpx xmlns="http://www.topografix.com/GPX/1/1" version="1.1" creator="iOrient"><trk><name>Рогейн «Весенний Джрвеж»</name><trkseg><trkpt lat="40.1825466" lon="44.6228366"><time>2023-03-12T07:59:08.540</time></trkpt><trkpt lat="40.1824961" lon="44.6228489"><time>2023-03-12T07:59:24.567</time></trkpt><trkpt lat="40.1825187" lon="44.6227904"><time>2023-03-12T08:00:08.570</time></trkpt><trkpt lat="40.1825024" lon="44.6227258"><time>2023-03-12T08:00:13.577</time></trkpt><trkpt lat="40.1824995" lon="44.6226636"><time>2023-03-12T08:00:16.573</time></trkpt><trkpt lat="40.1824918" lon="44.6226045"><time>2023-03-12T08:00:19.573</time></trkpt><trkpt lat="40.1824415" lon="44.6226012"><time>2023-03-12T08:00:33.567</time></trkpt><trkpt lat="40.1823547" lon="44.6226139"><time>2023-03-12T08:00:39.550</time></trkpt><trkpt lat="40.1823057" lon="44.6226347"><time>2023-03-12T08:00:41.573</time></trkpt><trkpt lat="40.1822460" lon="44.6226665"><time>2023-03-12T08:00:43.577</time></trkpt><trkpt lat="40.1822036" lon="44.6226908"><time>2023-03-12T08:00:47.580</time></trkpt><trkpt lat="40.1821570" lon="44.6227039"><time>2023-03-12T08:00:56.573</time></trkpt><trkpt lat="40.1821026" lon="44.6227152"><time>2023-03-12T08:01:06.577</time></trkpt><trkpt lat="40.1820341" lon="44.6227237"><time>2023-03-12T08:01:10.573</time></trkpt><trkpt lat="40.1819858" lon="44.6227204"><time>2023-03-12T08:01:11.567</time></trkpt><trkpt lat="40.1819390" lon="44.6227148"><time>2023-03-12T08:01:12.577</time></trkpt><trkpt lat="40.1818930" lon="44.6227110"><time>2023-03-12T08:01:13.567</time></trkpt><trkpt lat="40.1818435" lon="44.6226961"><time>2023-03-12T08:01:14.570</time></trkpt><trkpt lat="40.1817896" lon="44.6226836"><time>2023-03-12T08:01:15.573</time></trkpt><trkpt lat="40.1817158" lon="44.6226755"><time>2023-03-12T08:01:17.587</time></trkpt><trkpt lat="40.1816598" lon="44.6226807"><time>2023-03-12T08:01:19.550</time></trkpt><trkpt lat="40.1816003" lon="44.6226810"><time>2023-03-12T08:01:24.560</time></trkpt><trkpt lat="40.1815384" lon="44.6227024"><time>2023-03-12T08:01:26.560</time></trkpt><trkpt lat="40.1814859" lon="44.6227147"><time>2023-03-12T08:01:28.560</time></trkpt><trkpt lat="40.1814376" lon="44.6227248"><time>2023-03-12T08:01:30.570</time></trkpt><trkpt lat="40.1813839" lon="44.6227610"><time>2023-03-12T08:01:33.567</time></trkpt><trkpt lat="40.1813350" lon="44.6228105"><time>2023-03-12T08:01:36.570</time></trkpt><trkpt lat="40.1812819" lon="44.6228374"><time>2023-03-12T08:01:39.590</time></trkpt><trkpt lat="40.1812415" lon="44.6228640"><time>2023-03-12T08:01:41.597</time></trkpt><trkpt lat="40.1812019" lon="44.6228964"><time>2023-03-12T08:01:43.587</time></trkpt><trkpt lat="40.1811860" lon="44.6229552"><time>2023-03-12T08:01:45.597</time></trkpt><trkpt lat="40.1811488" lon="44.6229906"><time>2023-03-12T08:01:49.583</time></trkpt><trkpt lat="40.1811017" lon="44.6230010"><time>2023-03-12T08:02:02.587</time></trkpt><trkpt lat="40.1810320" lon="44.6230106"><time>2023-03-12T08:02:04.577</time></trkpt><trkpt lat="40.1809859" lon="44.6230217"><time>2023-03-12T08:02:06.563</time></trkpt><trkpt lat="40.1809355" lon="44.6230278"><time>2023-03-12T08:02:10.593</time></trkpt><trkpt lat="40.1808901" lon="44.6230462"><time>2023-03-12T08:02:12.580</time></trkpt><trkpt lat="40.1808405" lon="44.6230410"><time>2023-03-12T08:02:14.580</time></trkpt><trkpt lat="40.1807853" lon="44.6230424"><time>2023-03-12T08:02:16.577</time></trkpt><trkpt lat="40.1807387" lon="44.6230506"><time>2023-03-12T08:02:18.573</time></trkpt><trkpt lat="40.1806935" lon="44.6230586"><time>2023-03-12T08:02:20.573</time></trkpt><trkpt lat="40.1806471" lon="44.6230656"><time>2023-03-12T08:02:28.577</time></trkpt><trkpt lat="40.1805987" lon="44.6230680"><time>2023-03-12T08:02:40.587</time></trkpt><trkpt lat="40.1805523" lon="44.6230683"><time>2023-03-12T08:02:49.587</time></trkpt><trkpt lat="40.1804780" lon="44.6230524"><time>2023-03-12T08:02:52.580</time></trkpt><trkpt lat="40.1803958" lon="44.6230502"><time>2023-03-12T08:02:54.597</time></trkpt><trkpt lat="40.1803197" lon="44.6230547"><time>2023-03-12T08:02:56.577</time></trkpt><trkpt lat="40.1802606" lon="44.6230574"><time>2023-03-12T08:02:58.587</time></trkpt><trkpt lat="40.1802124" lon="44.6230715"><time>2023-03-12T08:03:00.587</time></trkpt><trkpt lat="40.1801578" lon="44.6230765"><time>2023-03-12T08:03:03.587</time></trkpt><trkpt lat="40.1801105" lon="44.6230755"><time>2023-03-12T08:03:13.577</time></trkpt><trkpt lat="40.1800562" lon="44.6230780"><time>2023-03-12T08:03:16.580</time></trkpt><trkpt lat="40.1800024" lon="44.6230563"><time>2023-03-12T08:03:19.603</time></trkpt><trkpt lat="40.1799544" lon="44.6230462"><time>2023-03-12T08:03:26.590</time></trkpt><trkpt lat="40.1799049" lon="44.6230414"><time>2023-03-12T08:03:35.583</time></trkpt><trkpt lat="40.1798368" lon="44.6230312"><time>2023-03-12T08:03:41.563</time></trkpt><trkpt lat="40.1797578" lon="44.6230158"><time>2023-03-12T08:03:43.563</time></trkpt><trkpt lat="40.1796933" lon="44.6230027"><time>2023-03-12T08:03:45.590</time></trkpt><trkpt lat="40.1796462" lon="44.6229996"><time>2023-03-12T08:03:47.577</time></trkpt><trkpt lat="40.1795968" lon="44.6229950"><time>2023-03-12T08:03:50.587</time></trkpt><trkpt lat="40.1795295" lon="44.6230163"><time>2023-03-12T08:03:53.567</time></trkpt><trkpt lat="40.1794763" lon="44.6230142"><time>2023-03-12T08:03:55.580</time></trkpt><trkpt lat="40.1794325" lon="44.6230296"><time>2023-03-12T08:03:57.577</time></trkpt><trkpt lat="40.1793669" lon="44.6230393"><time>2023-03-12T08:04:00.597</time></trkpt><trkpt lat="40.1793226" lon="44.6230943"><time>2023-03-12T08:04:03.563</time></trkpt><trkpt lat="40.1792784" lon="44.6231564"><time>2023-03-12T08:04:06.580</time></trkpt><trkpt lat="40.1792400" lon="44.6231893"><time>2023-03-12T08:04:08.570</time></trkpt><trkpt lat="40.1791834" lon="44.6232151"><time>2023-03-12T08:04:11.587</time></trkpt><trkpt lat="40.1791302" lon="44.6232370"><time>2023-03-12T08:04:14.563</time></trkpt><trkpt lat="40.1790836" lon="44.6232537"><time>2023-03-12T08:04:18.583</time></trkpt><trkpt lat="40.1790254" lon="44.6232598"><time>2023-03-12T08:04:22.593</time></trkpt><trkpt lat="40.1789733" lon="44.6232637"><time>2023-03-12T08:04:31.563</time></trkpt><trkpt lat="40.1789510" lon="44.6233237"><time>2023-03-12T08:04:35.570</time></trkpt><trkpt lat="40.1789505" lon="44.6233241"><time>2023-03-12T08:04:38.030</time></trkpt><trkpt lat="40.1789358" lon="44.6232556"><time>2023-03-12T08:05:14.567</time></trkpt><trkpt lat="40.1789332" lon="44.6231937"><time>2023-03-12T08:05:18.560</time></trkpt><trkpt lat="40.1789415" lon="44.6231239"><time>2023-03-12T08:05:21.573</time></trkpt><trkpt lat="40.1789407" lon="44.6230598"><time>2023-03-12T08:05:25.570</time></trkpt><trkpt lat="40.1789463" lon="44.6229966"><time>2023-03-12T08:05:27.597</time></trkpt><trkpt lat="40.1789560" lon="44.6229233"><time>2023-03-12T08:05:30.587</time></trkpt><trkpt lat="40.1789139" lon="44.6228807"><time>2023-03-12T08:05:37.587</time></trkpt><trkpt lat="40.1788636" lon="44.6228516"><time>2023-03-12T08:05:42.573</time></trkpt><trkpt lat="40.1788189" lon="44.6228385"><time>2023-03-12T08:05:47.583</time></trkpt><trkpt lat="40.1787728" lon="44.6228212"><time>2023-03-12T08:05:50.593</time></trkpt><trkpt lat="40.1787207" lon="44.6228232"><time>2023-03-12T08:05:54.587</time></trkpt><trkpt lat="40.1786695" lon="44.6228298"><time>2023-03-12T08:05:57.577</time></trkpt><trkpt lat="40.1786117" lon="44.6228265"><time>2023-03-12T08:06:00.587</time></trkpt><trkpt lat="40.1785553" lon="44.6228163"><time>2023-03-12T08:06:02.573</time></trkpt><trkpt lat="40.1784885" lon="44.6227826"><time>2023-03-12T08:06:04.587</time></trkpt><trkpt lat="40.1784762" lon="44.6227187"><time>2023-03-12T08:06:08.567</time></trkpt><trkpt lat="40.1784997" lon="44.6226598"><time>2023-03-12T08:06:11.570</time></trkpt><trkpt lat="40.1785380" lon="44.6226132"><time>2023-03-12T08:06:14.580</time></trkpt><trkpt lat="40.1785701" lon="44.6225709"><time>2023-03-12T08:06:17.587</time></trkpt><trkpt lat="40.1786144" lon="44.6225361"><time>2023-03-12T08:06:20.577</time></trkpt><trkpt lat="40.1786631" lon="44.6224907"><time>2023-03-12T08:06:23.570</time></trkpt><trkpt lat="40.1787176" lon="44.6224547"><time>2023-03-12T08:06:26.590</time></trkpt><trkpt lat="40.1787818" lon="44.6224198"><time>2023-03-12T08:06:29.587</time></trkpt><trkpt lat="40.1788410" lon="44.6223891"><time>2023-03-12T08:06:32.570</time></trkpt><trkpt lat="40.1789078" lon="44.6223818"><time>2023-03-12T08:06:35.583</time></trkpt><trkpt lat="40.1789626" lon="44.6223674"><time>2023-03-12T08:06:38.563</time></trkpt><trkpt lat="40.1790288" lon="44.6223470"><time>2023-03-12T08:06:41.557</time></trkpt><trkpt lat="40.1790771" lon="44.6223404"><time>2023-03-12T08:06:43.587</time></trkpt><trkpt lat="40.1791329" lon="44.6223269"><time>2023-03-12T08:06:47.583</time></trkpt><trkpt lat="40.1791876" lon="44.6223107"><time>2023-03-12T08:06:51.577</time></trkpt><trkpt lat="40.1792431" lon="44.6223171"><time>2023-03-12T08:06:54.593</time></trkpt><trkpt lat="40.1792880" lon="44.6223321"><time>2023-03-12T08:06:57.570</time></trkpt><trkpt lat="40.1793330" lon="44.6223358"><time>2023-03-12T08:07:00.557</time></trkpt><trkpt lat="40.1793848" lon="44.6223291"><time>2023-03-12T08:07:04.573</time></trkpt><trkpt lat="40.1794396" lon="44.6223049"><time>2023-03-12T08:07:09.573</time></trkpt><trkpt lat="40.1794966" lon="44.6222977"><time>2023-03-12T08:07:13.587</time></trkpt><trkpt lat="40.1795441" lon="44.6223028"><time>2023-03-12T08:07:16.587</time></trkpt><trkpt lat="40.1795966" lon="44.6222988"><time>2023-03-12T08:07:19.577</time></trkpt><trkpt lat="40.1796398" lon="44.6222798"><time>2023-03-12T08:07:23.580</time></trkpt><trkpt lat="40.1796859" lon="44.6222672"><time>2023-03-12T08:07:26.580</time></trkpt><trkpt lat="40.1797211" lon="44.6222302"><time>2023-03-12T08:07:30.583</time></trkpt><trkpt lat="40.1797462" lon="44.6221732"><time>2023-03-12T08:07:34.580</time></trkpt><trkpt lat="40.1797990" lon="44.6221475"><time>2023-03-12T08:07:40.577</time></trkpt><trkpt lat="40.1798542" lon="44.6221312"><time>2023-03-12T08:07:44.563</time></trkpt><trkpt lat="40.1799019" lon="44.6221189"><time>2023-03-12T08:07:46.597</time></trkpt><trkpt lat="40.1799238" lon="44.6221155"><time>2023-03-12T08:07:49.580</time></trkpt><trkpt lat="40.1798518" lon="44.6221339"><time>2023-03-12T08:08:50.587</time></trkpt><trkpt lat="40.1798281" lon="44.6220825"><time>2023-03-12T08:09:01.580</time></trkpt><trkpt lat="40.1798325" lon="44.6220172"><time>2023-03-12T08:09:34.587</time></trkpt><trkpt lat="40.1798225" lon="44.6219521"><time>2023-03-12T08:09:39.590</time></trkpt><trkpt lat="40.1798005" lon="44.6218946"><time>2023-03-12T08:09:43.573</time></trkpt><trkpt lat="40.1797675" lon="44.6218447"><time>2023-03-12T08:09:47.573</time></trkpt><trkpt lat="40.1797258" lon="44.6217998"><time>2023-03-12T08:09:51.590</time></trkpt><trkpt lat="40.1796880" lon="44.6217615"><time>2023-03-12T08:09:54.587</time></trkpt><trkpt lat="40.1796491" lon="44.6217224"><time>2023-03-12T08:09:57.587</time></trkpt><trkpt lat="40.1796156" lon="44.6216827"><time>2023-03-12T08:10:00.577</time></trkpt><trkpt lat="40.1795717" lon="44.6216579"><time>2023-03-12T08:10:10.590</time></trkpt><trkpt lat="40.1795264" lon="44.6216352"><time>2023-03-12T08:10:14.580</time></trkpt><trkpt lat="40.1794773" lon="44.6215967"><time>2023-03-12T08:10:18.587</time></trkpt><trkpt lat="40.1795272" lon="44.6216116"><time>2023-03-12T08:10:27.577</time></trkpt><trkpt lat="40.1795768" lon="44.6216026"><time>2023-03-12T08:10:31.580</time></trkpt><trkpt lat="40.1795740" lon="44.6215342"><time>2023-03-12T08:10:35.580</time></trkpt><trkpt lat="40.1795727" lon="44.6214671"><time>2023-03-12T08:10:38.577</time></trkpt><trkpt lat="40.1795754" lon="44.6213938"><time>2023-03-12T08:10:41.590</time></trkpt><trkpt lat="40.1795752" lon="44.6213260"><time>2023-03-12T08:10:45.587</time></trkpt><trkpt lat="40.1795664" lon="44.6212442"><time>2023-03-12T08:10:48.587</time></trkpt><trkpt lat="40.1795600" lon="44.6211745"><time>2023-03-12T08:10:50.580</time></trkpt><trkpt lat="40.1795521" lon="44.6210983"><time>2023-03-12T08:10:52.587</time></trkpt><trkpt lat="40.1795434" lon="44.6210269"><time>2023-03-12T08:10:54.597</time></trkpt><trkpt lat="40.1795278" lon="44.6209540"><time>2023-03-12T08:10:56.587</time></trkpt><trkpt lat="40.1795131" lon="44.6208847"><time>2023-03-12T08:10:58.580</time></trkpt><trkpt lat="40.1795032" lon="44.6208008"><time>2023-03-12T08:11:00.593</time></trkpt><trkpt lat="40.1794912" lon="44.6207298"><time>2023-03-12T08:11:02.583</time></trkpt><trkpt lat="40.1794806" lon="44.6206697"><time>2023-03-12T08:11:04.567</time></trkpt><trkpt lat="40.1794662" lon="44.6206112"><time>2023-03-12T08:11:06.590</time></trkpt><trkpt lat="40.1794530" lon="44.6205511"><time>2023-03-12T08:11:08.583</time></trkpt><trkpt lat="40.1794234" lon="44.6204685"><time>2023-03-12T08:11:11.587</time></trkpt><trkpt lat="40.1794078" lon="44.6204032"><time>2023-03-12T08:11:14.577</time></trkpt><trkpt lat="40.1793908" lon="44.6203294"><time>2023-03-12T08:11:18.583</time></trkpt><trkpt lat="40.1793695" lon="44.6202688"><time>2023-03-12T08:11:21.597</time></trkpt><trkpt lat="40.1793341" lon="44.6202097"><time>2023-03-12T08:11:24.600</time></trkpt><trkpt lat="40.1793222" lon="44.6201488"><time>2023-03-12T08:11:33.593</time></trkpt><trkpt lat="40.1792934" lon="44.6200765"><time>2023-03-12T08:11:37.580</time></trkpt><trkpt lat="40.1792596" lon="44.6200243"><time>2023-03-12T08:11:40.580</time></trkpt><trkpt lat="40.1792252" lon="44.6199718"><time>2023-03-12T08:11:43.560</time></trkpt><trkpt lat="40.1791962" lon="44.6199161"><time>2023-03-12T08:11:46.593</time></trkpt><trkpt lat="40.1791620" lon="44.6198758"><time>2023-03-12T08:11:49.587</time></trkpt><trkpt lat="40.1791316" lon="44.6198268"><time>2023-03-12T08:11:52.583</time></trkpt><trkpt lat="40.1791028" lon="44.6197776"><time>2023-03-12T08:11:55.587</time></trkpt><trkpt lat="40.1791174" lon="44.6197031"><time>2023-03-12T08:11:59.590</time></trkpt><trkpt lat="40.1791606" lon="44.6196443"><time>2023-03-12T08:12:02.590</time></trkpt><trkpt lat="40.1792004" lon="44.6195899"><time>2023-03-12T08:12:05.587</time></trkpt><trkpt lat="40.1792397" lon="44.6195284"><time>2023-03-12T08:12:08.590</time></trkpt><trkpt lat="40.1792449" lon="44.6194598"><time>2023-03-12T08:12:11.597</time></trkpt><trkpt lat="40.1792523" lon="44.6193957"><time>2023-03-12T08:12:15.580</time></trkpt><trkpt lat="40.1792584" lon="44.6193337"><time>2023-03-12T08:12:20.583</time></trkpt><trkpt lat="40.1792835" lon="44.6192773"><time>2023-03-12T08:12:24.597</time></trkpt><trkpt lat="40.1793018" lon="44.6192196"><time>2023-03-12T08:12:27.583</time></trkpt><trkpt lat="40.1792981" lon="44.6191485"><time>2023-03-12T08:12:29.590</time></trkpt><trkpt lat="40.1792890" lon="44.6190813"><time>2023-03-12T08:12:31.580</time></trkpt><trkpt lat="40.1792920" lon="44.6190189"><time>2023-03-12T08:12:33.590</time></trkpt><trkpt lat="40.1793151" lon="44.6189482"><time>2023-03-12T08:12:36.577</time></trkpt><trkpt lat="40.1793088" lon="44.6188897"><time>2023-03-12T08:12:38.587</time></trkpt><trkpt lat="40.1793074" lon="44.6188001"><time>2023-03-12T08:12:41.590</time></trkpt><trkpt lat="40.1792995" lon="44.6187342"><time>2023-03-12T08:12:43.587</time></trkpt><trkpt lat="40.1792908" lon="44.6186598"><time>2023-03-12T08:12:46.593</time></trkpt><trkpt lat="40.1792798" lon="44.6185895"><time>2023-03-12T08:12:50.587</time></trkpt><trkpt lat="40.1792795" lon="44.6185159"><time>2023-03-12T08:12:54.587</time></trkpt><trkpt lat="40.1792814" lon="44.6184540"><time>2023-03-12T08:12:58.580</time></trkpt><trkpt lat="40.1793088" lon="44.6183851"><time>2023-03-12T08:13:02.583</time></trkpt><trkpt lat="40.1792804" lon="44.6184520"><time>2023-03-12T08:13:20.563</time></trkpt><trkpt lat="40.1792898" lon="44.6185262"><time>2023-03-12T08:13:22.560</time></trkpt><trkpt lat="40.1792962" lon="44.6186017"><time>2023-03-12T08:13:24.590</time></trkpt><trkpt lat="40.1792882" lon="44.6186790"><time>2023-03-12T08:13:26.563</time></trkpt><trkpt lat="40.1792676" lon="44.6187463"><time>2023-03-12T08:13:28.590</time></trkpt><trkpt lat="40.1792313" lon="44.6187991"><time>2023-03-12T08:13:30.560</time></trkpt><trkpt lat="40.1791751" lon="44.6187945"><time>2023-03-12T08:13:33.560</time></trkpt><trkpt lat="40.1791143" lon="44.6188211"><time>2023-03-12T08:13:36.580</time></trkpt><trkpt lat="40.1790678" lon="44.6188049"><time>2023-03-12T08:13:38.593</time></trkpt><trkpt lat="40.1790142" lon="44.6187693"><time>2023-03-12T08:13:40.580</time></trkpt><trkpt lat="40.1789602" lon="44.6187593"><time>2023-03-12T08:13:42.567</time></trkpt><trkpt lat="40.1789157" lon="44.6187285"><time>2023-03-12T08:13:44.547</time></trkpt><trkpt lat="40.1788600" lon="44.6187054"><time>2023-03-12T08:13:47.583</time></trkpt><trkpt lat="40.1788242" lon="44.6187203"><time>2023-03-12T08:13:51.430</time></trkpt><trkpt lat="40.1788850" lon="44.6186565"><time>2023-03-12T08:14:00.600</time></trkpt><trkpt lat="40.1788701" lon="44.6186005"><time>2023-03-12T08:14:14.580</time></trkpt><trkpt lat="40.1788246" lon="44.6185962"><time>2023-03-12T08:14:23.563</time></trkpt><trkpt lat="40.1787778" lon="44.6186270"><time>2023-03-12T08:14:25.577</time></trkpt><trkpt lat="40.1787286" lon="44.6186353"><time>2023-03-12T08:14:28.567</time></trkpt><trkpt lat="40.1786783" lon="44.6186134"><time>2023-03-12T08:14:33.577</time></trkpt><trkpt lat="40.1786355" lon="44.6185940"><time>2023-03-12T08:14:37.587</time></trkpt><trkpt lat="40.1785866" lon="44.6185880"><time>2023-03-12T08:14:39.590</time></trkpt><trkpt lat="40.1785165" lon="44.6185640"><time>2023-03-12T08:14:42.577</time></trkpt><trkpt lat="40.1784778" lon="44.6185195"><time>2023-03-12T08:14:48.577</time></trkpt><trkpt lat="40.1784454" lon="44.6184760"><time>2023-03-12T08:15:04.583</time></trkpt><trkpt lat="40.1784034" lon="44.6184287"><time>2023-03-12T08:15:10.587</time></trkpt><trkpt lat="40.1783514" lon="44.6184355"><time>2023-03-12T08:15:22.597</time></trkpt><trkpt lat="40.1783150" lon="44.6184733"><time>2023-03-12T08:15:26.567</time></trkpt><trkpt lat="40.1782856" lon="44.6185215"><time>2023-03-12T08:15:36.577</time></trkpt><trkpt lat="40.1782405" lon="44.6185136"><time>2023-03-12T08:16:06.570</time></trkpt><trkpt lat="40.1781968" lon="44.6185332"><time>2023-03-12T08:16:10.583</time></trkpt><trkpt lat="40.1781471" lon="44.6185392"><time>2023-03-12T08:16:13.563</time></trkpt><trkpt lat="40.1780892" lon="44.6185530"><time>2023-03-12T08:16:16.567</time></trkpt><trkpt lat="40.1780311" lon="44.6185578"><time>2023-03-12T08:16:19.577</time></trkpt><trkpt lat="40.1779763" lon="44.6185663"><time>2023-03-12T08:16:23.587</time></trkpt><trkpt lat="40.1779199" lon="44.6185789"><time>2023-03-12T08:16:26.567</time></trkpt><trkpt lat="40.1778695" lon="44.6185860"><time>2023-03-12T08:16:30.583</time></trkpt><trkpt lat="40.1778250" lon="44.6185990"><time>2023-03-12T08:16:43.577</time></trkpt><trkpt lat="40.1777758" lon="44.6186043"><time>2023-03-12T08:16:49.570</time></trkpt><trkpt lat="40.1777214" lon="44.6186062"><time>2023-03-12T08:16:52.590</time></trkpt><trkpt lat="40.1776751" lon="44.6186027"><time>2023-03-12T08:16:55.570</time></trkpt><trkpt lat="40.1776299" lon="44.6186015"><time>2023-03-12T08:16:59.563</time></trkpt><trkpt lat="40.1775963" lon="44.6185442"><time>2023-03-12T08:17:15.580</time></trkpt><trkpt lat="40.1776340" lon="44.6184936"><time>2023-03-12T08:17:18.580</time></trkpt><trkpt lat="40.1776912" lon="44.6184587"><time>2023-03-12T08:17:21.577</time></trkpt><trkpt lat="40.1777314" lon="44.6184145"><time>2023-03-12T08:17:24.577</time></trkpt><trkpt lat="40.1777501" lon="44.6183987"><time>2023-03-12T08:17:28.483</time></trkpt><trkpt lat="40.1777789" lon="44.6183994"><time>2023-03-12T08:17:32.577</time></trkpt><trkpt lat="40.1778234" lon="44.6184246"><time>2023-03-12T08:17:36.563</time></trkpt><trkpt lat="40.1778202" lon="44.6184928"><time>2023-03-12T08:17:41.583</time></trkpt><trkpt lat="40.1778147" lon="44.6185551"><time>2023-03-12T08:17:51.553</time></trkpt><trkpt lat="40.1778554" lon="44.6186004"><time>2023-03-12T08:17:59.563</time></trkpt><trkpt lat="40.1779019" lon="44.6185983"><time>2023-03-12T08:18:03.560</time></trkpt><trkpt lat="40.1779495" lon="44.6185949"><time>2023-03-12T08:18:10.560</time></trkpt><trkpt lat="40.1780057" lon="44.6185911"><time>2023-03-12T08:18:15.567</time></trkpt><trkpt lat="40.1780585" lon="44.6185947"><time>2023-03-12T08:18:18.563</time></trkpt><trkpt lat="40.1781058" lon="44.6185859"><time>2023-03-12T08:18:20.587</time></trkpt><trkpt lat="40.1781509" lon="44.6185787"><time>2023-03-12T08:18:22.567</time></trkpt><trkpt lat="40.1781973" lon="44.6185658"><time>2023-03-12T08:18:24.560</time></trkpt><trkpt lat="40.1782440" lon="44.6185428"><time>2023-03-12T08:18:26.577</time></trkpt><trkpt lat="40.1782926" lon="44.6185188"><time>2023-03-12T08:18:28.567</time></trkpt><trkpt lat="40.1783355" lon="44.6184976"><time>2023-03-12T08:18:30.563</time></trkpt><trkpt lat="40.1783882" lon="44.6184686"><time>2023-03-12T08:18:33.560</time></trkpt><trkpt lat="40.1784317" lon="44.6184520"><time>2023-03-12T08:18:35.560</time></trkpt><trkpt lat="40.1784779" lon="44.6184477"><time>2023-03-12T08:18:37.567</time></trkpt><trkpt lat="40.1785390" lon="44.6184395"><time>2023-03-12T08:18:40.557</time></trkpt><trkpt lat="40.1786029" lon="44.6184075"><time>2023-03-12T08:18:43.577</time></trkpt><trkpt lat="40.1786606" lon="44.6183670"><time>2023-03-12T08:18:46.577</time></trkpt><trkpt lat="40.1786991" lon="44.6183330"><time>2023-03-12T08:18:48.567</time></trkpt><trkpt lat="40.1787405" lon="44.6182885"><time>2023-03-12T08:18:51.577</time></trkpt><trkpt lat="40.1787766" lon="44.6182441"><time>2023-03-12T08:18:54.563</time></trkpt><trkpt lat="40.1788120" lon="44.6181843"><time>2023-03-12T08:18:58.587</time></trkpt><trkpt lat="40.1788442" lon="44.6181249"><time>2023-03-12T08:19:01.567</time></trkpt><trkpt lat="40.1788719" lon="44.6180666"><time>2023-03-12T08:19:04.563</time></trkpt><trkpt lat="40.1789056" lon="44.6180108"><time>2023-03-12T08:19:07.590</time></trkpt><trkpt lat="40.1789455" lon="44.6179495"><time>2023-03-12T08:19:10.593</time></trkpt><trkpt lat="40.1789845" lon="44.6179001"><time>2023-03-12T08:19:13.580</time></trkpt><trkpt lat="40.1790222" lon="44.6178548"><time>2023-03-12T08:19:16.563</time></trkpt><trkpt lat="40.1790609" lon="44.6178109"><time>2023-03-12T08:19:19.553</time></trkpt><trkpt lat="40.1790999" lon="44.6177586"><time>2023-03-12T08:19:22.573</time></trkpt><trkpt lat="40.1791408" lon="44.6177007"><time>2023-03-12T08:19:25.570</time></trkpt><trkpt lat="40.1791814" lon="44.6176461"><time>2023-03-12T08:19:28.570</time></trkpt><trkpt lat="40.1792214" lon="44.6175914"><time>2023-03-12T08:19:31.567</time></trkpt><trkpt lat="40.1792655" lon="44.6175444"><time>2023-03-12T08:19:34.587</time></trkpt><trkpt lat="40.1793127" lon="44.6175050"><time>2023-03-12T08:19:38.577</time></trkpt><trkpt lat="40.1793553" lon="44.6174753"><time>2023-03-12T08:19:41.570</time></trkpt><trkpt lat="40.1793999" lon="44.6174402"><time>2023-03-12T08:19:44.587</time></trkpt><trkpt lat="40.1794490" lon="44.6174166"><time>2023-03-12T08:19:47.560</time></trkpt><trkpt lat="40.1795004" lon="44.6173950"><time>2023-03-12T08:19:50.587</time></trkpt><trkpt lat="40.1795472" lon="44.6173716"><time>2023-03-12T08:19:53.563</time></trkpt><trkpt lat="40.1796062" lon="44.6173666"><time>2023-03-12T08:19:57.587</time></trkpt><trkpt lat="40.1796409" lon="44.6173218"><time>2023-03-12T08:20:00.583</time></trkpt><trkpt lat="40.1796827" lon="44.6172715"><time>2023-03-12T08:20:03.597</time></trkpt><trkpt lat="40.1797123" lon="44.6172169"><time>2023-03-12T08:20:07.590</time></trkpt><trkpt lat="40.1797408" lon="44.6171712"><time>2023-03-12T08:20:10.587</time></trkpt><trkpt lat="40.1797809" lon="44.6171279"><time>2023-03-12T08:20:13.593</time></trkpt><trkpt lat="40.1798164" lon="44.6170687"><time>2023-03-12T08:20:16.587</time></trkpt><trkpt lat="40.1798511" lon="44.6170149"><time>2023-03-12T08:20:20.590</time></trkpt><trkpt lat="40.1798880" lon="44.6169810"><time>2023-03-12T08:20:23.553</time></trkpt><trkpt lat="40.1799425" lon="44.6169647"><time>2023-03-12T08:20:27.557</time></trkpt><trkpt lat="40.1799872" lon="44.6169884"><time>2023-03-12T08:20:30.570</time></trkpt><trkpt lat="40.1800469" lon="44.6170383"><time>2023-03-12T08:20:33.580</time></trkpt><trkpt lat="40.1800924" lon="44.6170853"><time>2023-03-12T08:20:35.570</time></trkpt><trkpt lat="40.1801377" lon="44.6171233"><time>2023-03-12T08:20:37.687</time></trkpt><trkpt lat="40.1801566" lon="44.6171270"><time>2023-03-12T08:20:39.037</time></trkpt><trkpt lat="40.1801682" lon="44.6171670"><time>2023-03-12T08:20:44.560</time></trkpt><trkpt lat="40.1801717" lon="44.6172276"><time>2023-03-12T08:20:49.580</time></trkpt><trkpt lat="40.1801737" lon="44.6172911"><time>2023-03-12T08:20:53.587</time></trkpt><trkpt lat="40.1801784" lon="44.6173496"><time>2023-03-12T08:21:00.583</time></trkpt><trkpt lat="40.1802135" lon="44.6174010"><time>2023-03-12T08:21:05.587</time></trkpt><trkpt lat="40.1801987" lon="44.6174617"><time>2023-03-12T08:21:08.580</time></trkpt><trkpt lat="40.1801900" lon="44.6175255"><time>2023-03-12T08:21:11.567</time></trkpt><trkpt lat="40.1801776" lon="44.6175821"><time>2023-03-12T08:21:16.587</time></trkpt><trkpt lat="40.1801982" lon="44.6176488"><time>2023-03-12T08:21:23.590</time></trkpt><trkpt lat="40.1802409" lon="44.6176884"><time>2023-03-12T08:21:26.560</time></trkpt><trkpt lat="40.1802790" lon="44.6177253"><time>2023-03-12T08:21:29.587</time></trkpt><trkpt lat="40.1803290" lon="44.6177742"><time>2023-03-12T08:21:32.587</time></trkpt><trkpt lat="40.1803754" lon="44.6178193"><time>2023-03-12T08:21:36.587</time></trkpt><trkpt lat="40.1804176" lon="44.6178574"><time>2023-03-12T08:21:39.590</time></trkpt><trkpt lat="40.1804606" lon="44.6178962"><time>2023-03-12T08:21:42.597</time></trkpt><trkpt lat="40.1805017" lon="44.6179401"><time>2023-03-12T08:21:45.597</time></trkpt><trkpt lat="40.1805466" lon="44.6179757"><time>2023-03-12T08:21:48.587</time></trkpt><trkpt lat="40.1805874" lon="44.6180044"><time>2023-03-12T08:21:50.587</time></trkpt><trkpt lat="40.1806294" lon="44.6180342"><time>2023-03-12T08:21:52.590</time></trkpt><trkpt lat="40.1806905" lon="44.6180745"><time>2023-03-12T08:21:55.563</time></trkpt><trkpt lat="40.1807341" lon="44.6181097"><time>2023-03-12T08:21:57.590</time></trkpt><trkpt lat="40.1807767" lon="44.6181490"><time>2023-03-12T08:21:59.570</time></trkpt><trkpt lat="40.1808158" lon="44.6181837"><time>2023-03-12T08:22:01.587</time></trkpt><trkpt lat="40.1808605" lon="44.6182211"><time>2023-03-12T08:22:03.580</time></trkpt><trkpt lat="40.1809088" lon="44.6182684"><time>2023-03-12T08:22:05.583</time></trkpt><trkpt lat="40.1809446" lon="44.6183127"><time>2023-03-12T08:22:07.597</time></trkpt><trkpt lat="40.1809838" lon="44.6183857"><time>2023-03-12T08:22:10.583</time></trkpt><trkpt lat="40.1810076" lon="44.6184403"><time>2023-03-12T08:22:12.577</time></trkpt><trkpt lat="40.1810371" lon="44.6185177"><time>2023-03-12T08:22:15.567</time></trkpt><trkpt lat="40.1810568" lon="44.6185768"><time>2023-03-12T08:22:17.587</time></trkpt><trkpt lat="40.1810737" lon="44.6186440"><time>2023-03-12T08:22:19.567</time></trkpt><trkpt lat="40.1810870" lon="44.6187290"><time>2023-03-12T08:22:21.570</time></trkpt><trkpt lat="40.1811060" lon="44.6188141"><time>2023-03-12T08:22:23.577</time></trkpt><trkpt lat="40.1811136" lon="44.6188753"><time>2023-03-12T08:22:25.597</time></trkpt><trkpt lat="40.1811246" lon="44.6189606"><time>2023-03-12T08:22:28.583</time></trkpt><trkpt lat="40.1811324" lon="44.6190219"><time>2023-03-12T08:22:30.587</time></trkpt><trkpt lat="40.1811401" lon="44.6191065"><time>2023-03-12T08:22:33.597</time></trkpt><trkpt lat="40.1811462" lon="44.6191801"><time>2023-03-12T08:22:36.587</time></trkpt><trkpt lat="40.1811530" lon="44.6192410"><time>2023-03-12T08:22:39.580</time></trkpt><trkpt lat="40.1811607" lon="44.6193172"><time>2023-03-12T08:22:43.587</time></trkpt><trkpt lat="40.1811647" lon="44.6193777"><time>2023-03-12T08:22:46.593</time></trkpt><trkpt lat="40.1811690" lon="44.6194574"><time>2023-03-12T08:22:50.590</time></trkpt><trkpt lat="40.1811749" lon="44.6195376"><time>2023-03-12T08:22:54.590</time></trkpt><trkpt lat="40.1811788" lon="44.6196075"><time>2023-03-12T08:22:57.583</time></trkpt><trkpt lat="40.1811737" lon="44.6196859"><time>2023-03-12T08:23:00.593</time></trkpt><trkpt lat="40.1811713" lon="44.6197566"><time>2023-03-12T08:23:03.587</time></trkpt><trkpt lat="40.1811703" lon="44.6198267"><time>2023-03-12T08:23:06.567</time></trkpt><trkpt lat="40.1811766" lon="44.6199003"><time>2023-03-12T08:23:09.587</time></trkpt><trkpt lat="40.1811724" lon="44.6199615"><time>2023-03-12T08:23:12.590</time></trkpt><trkpt lat="40.1811680" lon="44.6200417"><time>2023-03-12T08:23:15.590</time></trkpt><trkpt lat="40.1811538" lon="44.6201130"><time>2023-03-12T08:23:19.587</time></trkpt><trkpt lat="40.1811492" lon="44.6201786"><time>2023-03-12T08:23:22.583</time></trkpt><trkpt lat="40.1811444" lon="44.6202434"><time>2023-03-12T08:23:25.567</time></trkpt><trkpt lat="40.1811336" lon="44.6203124"><time>2023-03-12T08:23:29.587</time></trkpt><trkpt lat="40.1811276" lon="44.6203769"><time>2023-03-12T08:23:32.590</time></trkpt><trkpt lat="40.1811322" lon="44.6204362"><time>2023-03-12T08:23:35.580</time></trkpt><trkpt lat="40.1811300" lon="44.6205033"><time>2023-03-12T08:23:38.583</time></trkpt><trkpt lat="40.1811308" lon="44.6205676"><time>2023-03-12T08:23:41.587</time></trkpt><trkpt lat="40.1811303" lon="44.6206491"><time>2023-03-12T08:23:45.587</time></trkpt><trkpt lat="40.1811370" lon="44.6207154"><time>2023-03-12T08:23:48.593</time></trkpt><trkpt lat="40.1811472" lon="44.6207925"><time>2023-03-12T08:23:51.587</time></trkpt><trkpt lat="40.1811507" lon="44.6208722"><time>2023-03-12T08:23:54.590</time></trkpt><trkpt lat="40.1811509" lon="44.6209430"><time>2023-03-12T08:23:57.587</time></trkpt><trkpt lat="40.1811433" lon="44.6210088"><time>2023-03-12T08:24:02.587</time></trkpt><trkpt lat="40.1811736" lon="44.6210528"><time>2023-03-12T08:24:18.580</time></trkpt><trkpt lat="40.1811746" lon="44.6211153"><time>2023-03-12T08:24:22.590</time></trkpt><trkpt lat="40.1812017" lon="44.6211802"><time>2023-03-12T08:24:25.567</time></trkpt><trkpt lat="40.1812362" lon="44.6212313"><time>2023-03-12T08:24:28.597</time></trkpt><trkpt lat="40.1812716" lon="44.6212827"><time>2023-03-12T08:24:31.587</time></trkpt><trkpt lat="40.1813103" lon="44.6213339"><time>2023-03-12T08:24:34.587</time></trkpt><trkpt lat="40.1813475" lon="44.6213828"><time>2023-03-12T08:24:37.577</time></trkpt><trkpt lat="40.1813818" lon="44.6214358"><time>2023-03-12T08:24:41.597</time></trkpt><trkpt lat="40.1814192" lon="44.6214742"><time>2023-03-12T08:24:44.593</time></trkpt><trkpt lat="40.1814599" lon="44.6215240"><time>2023-03-12T08:24:47.590</time></trkpt><trkpt lat="40.1815114" lon="44.6215636"><time>2023-03-12T08:24:50.587</time></trkpt><trkpt lat="40.1815553" lon="44.6216126"><time>2023-03-12T08:24:53.600</time></trkpt><trkpt lat="40.1815998" lon="44.6216414"><time>2023-03-12T08:24:56.577</time></trkpt><trkpt lat="40.1816484" lon="44.6215933"><time>2023-03-12T08:25:00.583</time></trkpt><trkpt lat="40.1816714" lon="44.6215117"><time>2023-03-12T08:25:03.590</time></trkpt><trkpt lat="40.1817102" lon="44.6214303"><time>2023-03-12T08:25:06.593</time></trkpt><trkpt lat="40.1817416" lon="44.6213845"><time>2023-03-12T08:25:08.590</time></trkpt><trkpt lat="40.1817920" lon="44.6213298"><time>2023-03-12T08:25:11.587</time></trkpt><trkpt lat="40.1818069" lon="44.6212702"><time>2023-03-12T08:25:15.583</time></trkpt><trkpt lat="40.1818047" lon="44.6212380"><time>2023-03-12T08:25:19.447</time></trkpt><trkpt lat="40.1818164" lon="44.6212118"><time>2023-03-12T08:25:21.570</time></trkpt><trkpt lat="40.1818507" lon="44.6211696"><time>2023-03-12T08:25:33.580</time></trkpt><trkpt lat="40.1819063" lon="44.6211232"><time>2023-03-12T08:25:36.587</time></trkpt><trkpt lat="40.1819293" lon="44.6210726"><time>2023-03-12T08:25:39.583</time></trkpt><trkpt lat="40.1819686" lon="44.6210126"><time>2023-03-12T08:25:43.587</time></trkpt><trkpt lat="40.1819962" lon="44.6209616"><time>2023-03-12T08:25:46.563</time></trkpt><trkpt lat="40.1820276" lon="44.6209030"><time>2023-03-12T08:25:50.583</time></trkpt><trkpt lat="40.1820420" lon="44.6208334"><time>2023-03-12T08:25:55.590</time></trkpt><trkpt lat="40.1820645" lon="44.6207819"><time>2023-03-12T08:25:58.587</time></trkpt><trkpt lat="40.1820980" lon="44.6207272"><time>2023-03-12T08:26:01.593</time></trkpt><trkpt lat="40.1821358" lon="44.6206947"><time>2023-03-12T08:26:05.587</time></trkpt><trkpt lat="40.1821689" lon="44.6206508"><time>2023-03-12T08:26:09.563</time></trkpt><trkpt lat="40.1821982" lon="44.6205920"><time>2023-03-12T08:26:34.597</time></trkpt><trkpt lat="40.1822477" lon="44.6205318"><time>2023-03-12T08:26:38.583</time></trkpt><trkpt lat="40.1822858" lon="44.6204984"><time>2023-03-12T08:26:40.587</time></trkpt><trkpt lat="40.1823350" lon="44.6204615"><time>2023-03-12T08:26:43.567</time></trkpt><trkpt lat="40.1823755" lon="44.6204270"><time>2023-03-12T08:26:46.587</time></trkpt><trkpt lat="40.1824256" lon="44.6204053"><time>2023-03-12T08:26:48.597</time></trkpt><trkpt lat="40.1824846" lon="44.6203705"><time>2023-03-12T08:26:51.587</time></trkpt><trkpt lat="40.1825034" lon="44.6203109"><time>2023-03-12T08:26:53.557</time></trkpt><trkpt lat="40.1825060" lon="44.6202425"><time>2023-03-12T08:26:55.590</time></trkpt><trkpt lat="40.1825066" lon="44.6201830"><time>2023-03-12T08:26:57.587</time></trkpt><trkpt lat="40.1825111" lon="44.6201184"><time>2023-03-12T08:26:59.587</time></trkpt><trkpt lat="40.1825203" lon="44.6200520"><time>2023-03-12T08:27:01.587</time></trkpt><trkpt lat="40.1825290" lon="44.6199903"><time>2023-03-12T08:27:03.583</time></trkpt><trkpt lat="40.1825446" lon="44.6199325"><time>2023-03-12T08:27:05.590</time></trkpt><trkpt lat="40.1825594" lon="44.6198710"><time>2023-03-12T08:27:07.587</time></trkpt><trkpt lat="40.1825845" lon="44.6198092"><time>2023-03-12T08:27:09.590</time></trkpt><trkpt lat="40.1825928" lon="44.6197490"><time>2023-03-12T08:27:11.567</time></trkpt><trkpt lat="40.1825579" lon="44.6196834"><time>2023-03-12T08:27:14.590</time></trkpt><trkpt lat="40.1825069" lon="44.6196363"><time>2023-03-12T08:27:17.590</time></trkpt><trkpt lat="40.1824721" lon="44.6195871"><time>2023-03-12T08:27:19.567</time></trkpt><trkpt lat="40.1824448" lon="44.6195324"><time>2023-03-12T08:27:21.590</time></trkpt><trkpt lat="40.1824144" lon="44.6194854"><time>2023-03-12T08:27:23.597</time></trkpt><trkpt lat="40.1823652" lon="44.6194612"><time>2023-03-12T08:27:26.587</time></trkpt><trkpt lat="40.1823863" lon="44.6194081"><time>2023-03-12T08:27:45.567</time></trkpt><trkpt lat="40.1823842" lon="44.6193449"><time>2023-03-12T08:27:47.567</time></trkpt><trkpt lat="40.1823917" lon="44.6192772"><time>2023-03-12T08:27:49.597</time></trkpt><trkpt lat="40.1823971" lon="44.6192139"><time>2023-03-12T08:27:51.567</time></trkpt><trkpt lat="40.1824031" lon="44.6191378"><time>2023-03-12T08:27:54.567</time></trkpt><trkpt lat="40.1824156" lon="44.6190768"><time>2023-03-12T08:27:56.577</time></trkpt><trkpt lat="40.1824333" lon="44.6190077"><time>2023-03-12T08:27:58.583</time></trkpt><trkpt lat="40.1824609" lon="44.6189408"><time>2023-03-12T08:28:01.567</time></trkpt><trkpt lat="40.1824867" lon="44.6188922"><time>2023-03-12T08:28:06.590</time></trkpt><trkpt lat="40.1824539" lon="44.6189701"><time>2023-03-12T08:28:12.587</time></trkpt><trkpt lat="40.1824420" lon="44.6190473"><time>2023-03-12T08:28:15.587</time></trkpt><trkpt lat="40.1824176" lon="44.6191133"><time>2023-03-12T08:28:18.587</time></trkpt><trkpt lat="40.1823998" lon="44.6191705"><time>2023-03-12T08:28:21.590</time></trkpt><trkpt lat="40.1823995" lon="44.6192309"><time>2023-03-12T08:28:24.587</time></trkpt><trkpt lat="40.1823990" lon="44.6192978"><time>2023-03-12T08:28:27.577</time></trkpt><trkpt lat="40.1824002" lon="44.6193686"><time>2023-03-12T08:28:30.590</time></trkpt><trkpt lat="40.1823899" lon="44.6194449"><time>2023-03-12T08:28:33.587</time></trkpt><trkpt lat="40.1823634" lon="44.6194934"><time>2023-03-12T08:28:37.587</time></trkpt><trkpt lat="40.1823049" lon="44.6195041"><time>2023-03-12T08:28:40.583</time></trkpt><trkpt lat="40.1822537" lon="44.6195167"><time>2023-03-12T08:28:43.583</time></trkpt><trkpt lat="40.1822033" lon="44.6195276"><time>2023-03-12T08:28:46.580</time></trkpt><trkpt lat="40.1821556" lon="44.6195351"><time>2023-03-12T08:28:49.577</time></trkpt><trkpt lat="40.1821015" lon="44.6195540"><time>2023-03-12T08:28:52.587</time></trkpt><trkpt lat="40.1820457" lon="44.6195699"><time>2023-03-12T08:28:56.590</time></trkpt><trkpt lat="40.1819979" lon="44.6195706"><time>2023-03-12T08:28:59.583</time></trkpt><trkpt lat="40.1819459" lon="44.6195570"><time>2023-03-12T08:29:02.583</time></trkpt><trkpt lat="40.1819278" lon="44.6194934"><time>2023-03-12T08:29:06.587</time></trkpt><trkpt lat="40.1819035" lon="44.6194432"><time>2023-03-12T08:29:12.567</time></trkpt><trkpt lat="40.1819325" lon="44.6193857"><time>2023-03-12T08:29:57.527</time></trkpt><trkpt lat="40.1819645" lon="44.6193407"><time>2023-03-12T08:29:59.587</time></trkpt><trkpt lat="40.1819976" lon="44.6192906"><time>2023-03-12T08:30:02.583</time></trkpt><trkpt lat="40.1819918" lon="44.6192275"><time>2023-03-12T08:30:10.550</time></trkpt><trkpt lat="40.1819951" lon="44.6191599"><time>2023-03-12T08:30:14.560</time></trkpt><trkpt lat="40.1820433" lon="44.6191601"><time>2023-03-12T08:30:21.573</time></trkpt><trkpt lat="40.1820952" lon="44.6191725"><time>2023-03-12T08:30:25.587</time></trkpt><trkpt lat="40.1821155" lon="44.6191211"><time>2023-03-12T08:30:49.783</time></trkpt><trkpt lat="40.1821158" lon="44.6191182"><time>2023-03-12T08:30:51.567</time></trkpt><trkpt lat="40.1821309" lon="44.6191805"><time>2023-03-12T08:31:31.530</time></trkpt><trkpt lat="40.1821062" lon="44.6192326"><time>2023-03-12T08:31:33.577</time></trkpt><trkpt lat="40.1820685" lon="44.6193001"><time>2023-03-12T08:31:35.580</time></trkpt><trkpt lat="40.1820393" lon="44.6193528"><time>2023-03-12T08:31:39.587</time></trkpt><trkpt lat="40.1819972" lon="44.6193893"><time>2023-03-12T08:31:45.583</time></trkpt><trkpt lat="40.1819915" lon="44.6194585"><time>2023-03-12T08:31:49.570</time></trkpt><trkpt lat="40.1820006" lon="44.6195161"><time>2023-03-12T08:31:53.557</time></trkpt><trkpt lat="40.1820597" lon="44.6195423"><time>2023-03-12T08:31:56.577</time></trkpt><trkpt lat="40.1821064" lon="44.6195382"><time>2023-03-12T08:31:58.563</time></trkpt><trkpt lat="40.1821554" lon="44.6195209"><time>2023-03-12T08:32:00.577</time></trkpt><trkpt lat="40.1822061" lon="44.6195079"><time>2023-03-12T08:32:02.577</time></trkpt><trkpt lat="40.1822549" lon="44.6194978"><time>2023-03-12T08:32:04.590</time></trkpt><trkpt lat="40.1823058" lon="44.6194957"><time>2023-03-12T08:32:06.590</time></trkpt><trkpt lat="40.1823518" lon="44.6194930"><time>2023-03-12T08:32:08.570</time></trkpt><trkpt lat="40.1824136" lon="44.6194989"><time>2023-03-12T08:32:11.567</time></trkpt><trkpt lat="40.1824637" lon="44.6195561"><time>2023-03-12T08:32:14.580</time></trkpt><trkpt lat="40.1825051" lon="44.6196138"><time>2023-03-12T08:32:17.570</time></trkpt><trkpt lat="40.1825365" lon="44.6196625"><time>2023-03-12T08:32:20.577</time></trkpt><trkpt lat="40.1825754" lon="44.6197045"><time>2023-03-12T08:32:23.593</time></trkpt><trkpt lat="40.1826052" lon="44.6197571"><time>2023-03-12T08:32:26.580</time></trkpt><trkpt lat="40.1826046" lon="44.6198224"><time>2023-03-12T08:32:29.553</time></trkpt><trkpt lat="40.1825748" lon="44.6198689"><time>2023-03-12T08:32:32.553</time></trkpt><trkpt lat="40.1825506" lon="44.6199386"><time>2023-03-12T08:32:35.570</time></trkpt><trkpt lat="40.1825298" lon="44.6199991"><time>2023-03-12T08:32:39.597</time></trkpt><trkpt lat="40.1825108" lon="44.6200637"><time>2023-03-12T08:32:42.573</time></trkpt><trkpt lat="40.1825102" lon="44.6201293"><time>2023-03-12T08:32:45.580</time></trkpt><trkpt lat="40.1825075" lon="44.6201956"><time>2023-03-12T08:32:48.573</time></trkpt><trkpt lat="40.1825122" lon="44.6202713"><time>2023-03-12T08:32:52.587</time></trkpt><trkpt lat="40.1825306" lon="44.6203567"><time>2023-03-12T08:32:55.577</time></trkpt><trkpt lat="40.1825705" lon="44.6203948"><time>2023-03-12T08:32:58.583</time></trkpt><trkpt lat="40.1826234" lon="44.6203952"><time>2023-03-12T08:33:01.587</time></trkpt><trkpt lat="40.1826695" lon="44.6203877"><time>2023-03-12T08:33:03.583</time></trkpt><trkpt lat="40.1827188" lon="44.6203807"><time>2023-03-12T08:33:06.587</time></trkpt><trkpt lat="40.1827637" lon="44.6203676"><time>2023-03-12T08:33:09.570</time></trkpt><trkpt lat="40.1828121" lon="44.6203600"><time>2023-03-12T08:33:12.590</time></trkpt><trkpt lat="40.1828697" lon="44.6203446"><time>2023-03-12T08:33:15.573</time></trkpt><trkpt lat="40.1829164" lon="44.6203239"><time>2023-03-12T08:33:18.570</time></trkpt><trkpt lat="40.1829662" lon="44.6203002"><time>2023-03-12T08:33:21.573</time></trkpt><trkpt lat="40.1830142" lon="44.6202864"><time>2023-03-12T08:33:24.580</time></trkpt><trkpt lat="40.1830662" lon="44.6202663"><time>2023-03-12T08:33:27.570</time></trkpt><trkpt lat="40.1831142" lon="44.6202530"><time>2023-03-12T08:33:30.583</time></trkpt><trkpt lat="40.1831759" lon="44.6202385"><time>2023-03-12T08:33:33.570</time></trkpt><trkpt lat="40.1832301" lon="44.6202284"><time>2023-03-12T08:33:36.570</time></trkpt><trkpt lat="40.1832869" lon="44.6202042"><time>2023-03-12T08:33:40.567</time></trkpt><trkpt lat="40.1833332" lon="44.6201816"><time>2023-03-12T08:33:43.577</time></trkpt><trkpt lat="40.1833892" lon="44.6201655"><time>2023-03-12T08:33:47.573</time></trkpt><trkpt lat="40.1834399" lon="44.6201515"><time>2023-03-12T08:33:50.567</time></trkpt><trkpt lat="40.1834762" lon="44.6200981"><time>2023-03-12T08:33:53.573</time></trkpt><trkpt lat="40.1835178" lon="44.6200548"><time>2023-03-12T08:33:56.573</time></trkpt><trkpt lat="40.1835443" lon="44.6200031"><time>2023-03-12T08:34:01.573</time></trkpt><trkpt lat="40.1835488" lon="44.6199339"><time>2023-03-12T08:34:04.570</time></trkpt><trkpt lat="40.1835424" lon="44.6198815"><time>2023-03-12T08:34:07.657</time></trkpt><trkpt lat="40.1835323" lon="44.6198695"><time>2023-03-12T08:34:09.573</time></trkpt><trkpt lat="40.1835005" lon="44.6198268"><time>2023-03-12T08:34:29.580</time></trkpt><trkpt lat="40.1834926" lon="44.6197638"><time>2023-03-12T08:34:34.577</time></trkpt><trkpt lat="40.1834953" lon="44.6196884"><time>2023-03-12T08:34:37.573</time></trkpt><trkpt lat="40.1834962" lon="44.6196242"><time>2023-03-12T08:34:40.567</time></trkpt><trkpt lat="40.1834996" lon="44.6195427"><time>2023-03-12T08:34:43.563</time></trkpt><trkpt lat="40.1835037" lon="44.6194715"><time>2023-03-12T08:34:46.563</time></trkpt><trkpt lat="40.1835136" lon="44.6193977"><time>2023-03-12T08:34:50.573</time></trkpt><trkpt lat="40.1835178" lon="44.6193336"><time>2023-03-12T08:34:53.567</time></trkpt><trkpt lat="40.1835229" lon="44.6192620"><time>2023-03-12T08:34:57.577</time></trkpt><trkpt lat="40.1835293" lon="44.6191860"><time>2023-03-12T08:35:00.560</time></trkpt><trkpt lat="40.1835345" lon="44.6191033"><time>2023-03-12T08:35:03.583</time></trkpt><trkpt lat="40.1835341" lon="44.6190313"><time>2023-03-12T08:35:06.583</time></trkpt><trkpt lat="40.1835399" lon="44.6189667"><time>2023-03-12T08:35:09.577</time></trkpt><trkpt lat="40.1835463" lon="44.6189045"><time>2023-03-12T08:35:12.593</time></trkpt><trkpt lat="40.1835488" lon="44.6188259"><time>2023-03-12T08:35:16.587</time></trkpt><trkpt lat="40.1835595" lon="44.6187529"><time>2023-03-12T08:35:19.573</time></trkpt><trkpt lat="40.1835693" lon="44.6186840"><time>2023-03-12T08:35:22.583</time></trkpt><trkpt lat="40.1835678" lon="44.6186144"><time>2023-03-12T08:35:25.580</time></trkpt><trkpt lat="40.1835671" lon="44.6185429"><time>2023-03-12T08:35:28.587</time></trkpt><trkpt lat="40.1835702" lon="44.6184635"><time>2023-03-12T08:35:31.580</time></trkpt><trkpt lat="40.1835894" lon="44.6183929"><time>2023-03-12T08:35:35.567</time></trkpt><trkpt lat="40.1836235" lon="44.6183533"><time>2023-03-12T08:35:39.587</time></trkpt><trkpt lat="40.1836551" lon="44.6183105"><time>2023-03-12T08:35:46.563</time></trkpt><trkpt lat="40.1837033" lon="44.6182844"><time>2023-03-12T08:35:52.590</time></trkpt><trkpt lat="40.1837524" lon="44.6182577"><time>2023-03-12T08:35:57.587</time></trkpt><trkpt lat="40.1837905" lon="44.6182259"><time>2023-03-12T08:36:04.570</time></trkpt><trkpt lat="40.1838217" lon="44.6181749"><time>2023-03-12T08:36:31.587</time></trkpt><trkpt lat="40.1838630" lon="44.6181373"><time>2023-03-12T08:36:38.583</time></trkpt><trkpt lat="40.1838629" lon="44.6180757"><time>2023-03-12T08:36:45.587</time></trkpt><trkpt lat="40.1838513" lon="44.6180164"><time>2023-03-12T08:36:53.570</time></trkpt><trkpt lat="40.1838684" lon="44.6179593"><time>2023-03-12T08:37:03.587</time></trkpt><trkpt lat="40.1838865" lon="44.6178959"><time>2023-03-12T08:37:10.583</time></trkpt><trkpt lat="40.1839180" lon="44.6178398"><time>2023-03-12T08:37:12.573</time></trkpt><trkpt lat="40.1839657" lon="44.6177827"><time>2023-03-12T08:37:14.580</time></trkpt><trkpt lat="40.1840065" lon="44.6177296"><time>2023-03-12T08:37:16.583</time></trkpt><trkpt lat="40.1840335" lon="44.6176769"><time>2023-03-12T08:37:17.577</time></trkpt><trkpt lat="40.1840755" lon="44.6176482"><time>2023-03-12T08:37:20.560</time></trkpt><trkpt lat="40.1841221" lon="44.6176641"><time>2023-03-12T08:37:26.567</time></trkpt><trkpt lat="40.1841378" lon="44.6176735"><time>2023-03-12T08:37:33.287</time></trkpt><trkpt lat="40.1841689" lon="44.6176654"><time>2023-03-12T08:38:14.520</time></trkpt><trkpt lat="40.1842103" lon="44.6176157"><time>2023-03-12T08:38:20.520</time></trkpt><trkpt lat="40.1842504" lon="44.6175512"><time>2023-03-12T08:38:23.560</time></trkpt><trkpt lat="40.1842582" lon="44.6174544"><time>2023-03-12T08:38:26.583</time></trkpt><trkpt lat="40.1842474" lon="44.6173702"><time>2023-03-12T08:38:28.563</time></trkpt><trkpt lat="40.1842340" lon="44.6172919"><time>2023-03-12T08:38:30.577</time></trkpt><trkpt lat="40.1842192" lon="44.6172116"><time>2023-03-12T08:38:33.587</time></trkpt><trkpt lat="40.1842054" lon="44.6171382"><time>2023-03-12T08:38:36.577</time></trkpt><trkpt lat="40.1842034" lon="44.6170706"><time>2023-03-12T08:38:39.593</time></trkpt><trkpt lat="40.1842234" lon="44.6170052"><time>2023-03-12T08:38:42.577</time></trkpt><trkpt lat="40.1842691" lon="44.6169804"><time>2023-03-12T08:38:45.587</time></trkpt><trkpt lat="40.1843143" lon="44.6169290"><time>2023-03-12T08:38:49.587</time></trkpt><trkpt lat="40.1843496" lon="44.6168872"><time>2023-03-12T08:38:52.587</time></trkpt><trkpt lat="40.1843994" lon="44.6168463"><time>2023-03-12T08:38:56.590</time></trkpt><trkpt lat="40.1844456" lon="44.6168190"><time>2023-03-12T08:38:59.580</time></trkpt><trkpt lat="40.1844873" lon="44.6167939"><time>2023-03-12T08:39:02.577</time></trkpt><trkpt lat="40.1845268" lon="44.6167636"><time>2023-03-12T08:39:05.593</time></trkpt><trkpt lat="40.1845777" lon="44.6167291"><time>2023-03-12T08:39:09.583</time></trkpt><trkpt lat="40.1846197" lon="44.6166925"><time>2023-03-12T08:39:12.590</time></trkpt><trkpt lat="40.1846623" lon="44.6166552"><time>2023-03-12T08:39:14.590</time></trkpt><trkpt lat="40.1847113" lon="44.6166264"><time>2023-03-12T08:39:16.557</time></trkpt><trkpt lat="40.1847614" lon="44.6165984"><time>2023-03-12T08:39:18.577</time></trkpt><trkpt lat="40.1848024" lon="44.6165574"><time>2023-03-12T08:39:20.577</time></trkpt><trkpt lat="40.1848294" lon="44.6164786"><time>2023-03-12T08:39:23.590</time></trkpt><trkpt lat="40.1848342" lon="44.6164126"><time>2023-03-12T08:39:25.587</time></trkpt><trkpt lat="40.1848393" lon="44.6163385"><time>2023-03-12T08:39:27.583</time></trkpt><trkpt lat="40.1848433" lon="44.6162624"><time>2023-03-12T08:39:29.593</time></trkpt><trkpt lat="40.1848486" lon="44.6161901"><time>2023-03-12T08:39:31.563</time></trkpt><trkpt lat="40.1848372" lon="44.6161218"><time>2023-03-12T08:39:33.587</time></trkpt><trkpt lat="40.1848192" lon="44.6160522"><time>2023-03-12T08:39:36.573</time></trkpt><trkpt lat="40.1848106" lon="44.6159887"><time>2023-03-12T08:39:39.557</time></trkpt><trkpt lat="40.1847974" lon="44.6159249"><time>2023-03-12T08:39:43.580</time></trkpt><trkpt lat="40.1847842" lon="44.6158607"><time>2023-03-12T08:39:47.573</time></trkpt><trkpt lat="40.1848302" lon="44.6158915"><time>2023-03-12T08:40:16.580</time></trkpt><trkpt lat="40.1848426" lon="44.6158133"><time>2023-03-12T08:40:19.577</time></trkpt><trkpt lat="40.1848373" lon="44.6157466"><time>2023-03-12T08:40:22.587</time></trkpt><trkpt lat="40.1848209" lon="44.6156805"><time>2023-03-12T08:40:25.567</time></trkpt><trkpt lat="40.1847940" lon="44.6156203"><time>2023-03-12T08:40:28.580</time></trkpt><trkpt lat="40.1847762" lon="44.6155534"><time>2023-03-12T08:40:31.583</time></trkpt><trkpt lat="40.1847737" lon="44.6154750"><time>2023-03-12T08:40:34.597</time></trkpt><trkpt lat="40.1847841" lon="44.6154101"><time>2023-03-12T08:40:39.580</time></trkpt><trkpt lat="40.1847791" lon="44.6153505"><time>2023-03-12T08:40:42.580</time></trkpt><trkpt lat="40.1847516" lon="44.6152944"><time>2023-03-12T08:40:45.560</time></trkpt><trkpt lat="40.1847597" lon="44.6152204"><time>2023-03-12T08:40:49.580</time></trkpt><trkpt lat="40.1847793" lon="44.6151500"><time>2023-03-12T08:40:52.567</time></trkpt><trkpt lat="40.1847980" lon="44.6150601"><time>2023-03-12T08:40:55.577</time></trkpt><trkpt lat="40.1848280" lon="44.6150023"><time>2023-03-12T08:40:59.563</time></trkpt><trkpt lat="40.1848683" lon="44.6149348"><time>2023-03-12T08:41:01.563</time></trkpt><trkpt lat="40.1849078" lon="44.6148724"><time>2023-03-12T08:41:03.557</time></trkpt><trkpt lat="40.1849112" lon="44.6147993"><time>2023-03-12T08:41:05.593</time></trkpt><trkpt lat="40.1849398" lon="44.6147511"><time>2023-03-12T08:41:07.573</time></trkpt><trkpt lat="40.1849423" lon="44.6147607"><time>2023-03-12T08:41:12.827</time></trkpt><trkpt lat="40.1849398" lon="44.6148129"><time>2023-03-12T08:41:18.573</time></trkpt><trkpt lat="40.1849032" lon="44.6148492"><time>2023-03-12T08:41:22.580</time></trkpt><trkpt lat="40.1848864" lon="44.6149149"><time>2023-03-12T08:41:33.557</time></trkpt><trkpt lat="40.1848491" lon="44.6149593"><time>2023-03-12T08:41:36.560</time></trkpt><trkpt lat="40.1848256" lon="44.6150231"><time>2023-03-12T08:41:39.587</time></trkpt><trkpt lat="40.1848007" lon="44.6150857"><time>2023-03-12T08:41:42.590</time></trkpt><trkpt lat="40.1847899" lon="44.6151513"><time>2023-03-12T08:41:45.560</time></trkpt><trkpt lat="40.1847864" lon="44.6152158"><time>2023-03-12T08:41:49.580</time></trkpt><trkpt lat="40.1847812" lon="44.6152845"><time>2023-03-12T08:41:53.570</time></trkpt><trkpt lat="40.1847837" lon="44.6153446"><time>2023-03-12T08:41:57.580</time></trkpt><trkpt lat="40.1847829" lon="44.6154173"><time>2023-03-12T08:42:10.570</time></trkpt><trkpt lat="40.1847799" lon="44.6154914"><time>2023-03-12T08:42:15.590</time></trkpt><trkpt lat="40.1847845" lon="44.6155643"><time>2023-03-12T08:42:19.593</time></trkpt><trkpt lat="40.1848059" lon="44.6156260"><time>2023-03-12T08:42:24.570</time></trkpt><trkpt lat="40.1848372" lon="44.6156745"><time>2023-03-12T08:42:28.570</time></trkpt><trkpt lat="40.1848402" lon="44.6157336"><time>2023-03-12T08:43:11.503</time></trkpt><trkpt lat="40.1848390" lon="44.6158207"><time>2023-03-12T08:43:23.603</time></trkpt><trkpt lat="40.1848186" lon="44.6158980"><time>2023-03-12T08:43:27.567</time></trkpt><trkpt lat="40.1848212" lon="44.6159755"><time>2023-03-12T08:43:30.577</time></trkpt><trkpt lat="40.1848272" lon="44.6160441"><time>2023-03-12T08:43:33.567</time></trkpt><trkpt lat="40.1848330" lon="44.6161152"><time>2023-03-12T08:43:37.587</time></trkpt><trkpt lat="40.1848885" lon="44.6161308"><time>2023-03-12T08:43:47.567</time></trkpt><trkpt lat="40.1849492" lon="44.6161242"><time>2023-03-12T08:43:51.570</time></trkpt><trkpt lat="40.1850013" lon="44.6161160"><time>2023-03-12T08:44:00.560</time></trkpt><trkpt lat="40.1850520" lon="44.6160900"><time>2023-03-12T08:44:06.577</time></trkpt><trkpt lat="40.1850859" lon="44.6160384"><time>2023-03-12T08:44:10.583</time></trkpt><trkpt lat="40.1851099" lon="44.6159760"><time>2023-03-12T08:44:14.580</time></trkpt><trkpt lat="40.1851551" lon="44.6159321"><time>2023-03-12T08:44:18.583</time></trkpt><trkpt lat="40.1851994" lon="44.6159137"><time>2023-03-12T08:44:22.607</time></trkpt><trkpt lat="40.1852460" lon="44.6158901"><time>2023-03-12T08:44:25.587</time></trkpt><trkpt lat="40.1853045" lon="44.6158650"><time>2023-03-12T08:44:29.590</time></trkpt><trkpt lat="40.1853587" lon="44.6158315"><time>2023-03-12T08:44:33.593</time></trkpt><trkpt lat="40.1854059" lon="44.6158184"><time>2023-03-12T08:44:36.560</time></trkpt><trkpt lat="40.1854572" lon="44.6158177"><time>2023-03-12T08:44:40.563</time></trkpt><trkpt lat="40.1855054" lon="44.6158167"><time>2023-03-12T08:44:43.583</time></trkpt><trkpt lat="40.1855570" lon="44.6158210"><time>2023-03-12T08:44:46.583</time></trkpt><trkpt lat="40.1856171" lon="44.6158237"><time>2023-03-12T08:44:50.573</time></trkpt><trkpt lat="40.1856662" lon="44.6158192"><time>2023-03-12T08:44:54.563</time></trkpt><trkpt lat="40.1857124" lon="44.6158355"><time>2023-03-12T08:44:57.570</time></trkpt><trkpt lat="40.1857580" lon="44.6158831"><time>2023-03-12T08:45:00.577</time></trkpt><trkpt lat="40.1857755" lon="44.6159462"><time>2023-03-12T08:45:03.590</time></trkpt><trkpt lat="40.1857703" lon="44.6160152"><time>2023-03-12T08:45:06.560</time></trkpt><trkpt lat="40.1857553" lon="44.6160711"><time>2023-03-12T08:45:09.570</time></trkpt><trkpt lat="40.1857384" lon="44.6161349"><time>2023-03-12T08:45:13.563</time></trkpt><trkpt lat="40.1857197" lon="44.6162096"><time>2023-03-12T08:45:17.557</time></trkpt><trkpt lat="40.1857146" lon="44.6162916"><time>2023-03-12T08:45:20.563</time></trkpt><trkpt lat="40.1857062" lon="44.6163762"><time>2023-03-12T08:45:24.567</time></trkpt><trkpt lat="40.1857012" lon="44.6164385"><time>2023-03-12T08:45:26.573</time></trkpt><trkpt lat="40.1857017" lon="44.6165070"><time>2023-03-12T08:45:28.563</time></trkpt><trkpt lat="40.1856999" lon="44.6165782"><time>2023-03-12T08:45:31.557</time></trkpt><trkpt lat="40.1856923" lon="44.6166521"><time>2023-03-12T08:45:35.577</time></trkpt><trkpt lat="40.1856841" lon="44.6167145"><time>2023-03-12T08:45:38.577</time></trkpt><trkpt lat="40.1856762" lon="44.6167882"><time>2023-03-12T08:45:42.570</time></trkpt><trkpt lat="40.1856719" lon="44.6168486"><time>2023-03-12T08:45:45.563</time></trkpt><trkpt lat="40.1856674" lon="44.6169237"><time>2023-03-12T08:45:49.563</time></trkpt><trkpt lat="40.1856773" lon="44.6169970"><time>2023-03-12T08:45:53.560</time></trkpt><trkpt lat="40.1856896" lon="44.6170633"><time>2023-03-12T08:45:57.553</time></trkpt><trkpt lat="40.1856993" lon="44.6171357"><time>2023-03-12T08:46:01.553</time></trkpt><trkpt lat="40.1857127" lon="44.6171943"><time>2023-03-12T08:46:05.573</time></trkpt><trkpt lat="40.1857331" lon="44.6172477"><time>2023-03-12T08:46:09.563</time></trkpt><trkpt lat="40.1857685" lon="44.6172933"><time>2023-03-12T08:46:13.557</time></trkpt><trkpt lat="40.1857782" lon="44.6173537"><time>2023-03-12T08:46:22.560</time></trkpt><trkpt lat="40.1857891" lon="44.6174109"><time>2023-03-12T08:46:30.590</time></trkpt><trkpt lat="40.1858197" lon="44.6174557"><time>2023-03-12T08:46:34.573</time></trkpt><trkpt lat="40.1858546" lon="44.6175002"><time>2023-03-12T08:46:38.560</time></trkpt><trkpt lat="40.1858870" lon="44.6175468"><time>2023-03-12T08:46:42.560</time></trkpt><trkpt lat="40.1859232" lon="44.6176010"><time>2023-03-12T08:46:47.557</time></trkpt><trkpt lat="40.1859478" lon="44.6176543"><time>2023-03-12T08:46:57.560</time></trkpt><trkpt lat="40.1859539" lon="44.6177184"><time>2023-03-12T08:47:01.553</time></trkpt><trkpt lat="40.1859378" lon="44.6177826"><time>2023-03-12T08:47:05.563</time></trkpt><trkpt lat="40.1859456" lon="44.6178425"><time>2023-03-12T08:47:10.557</time></trkpt><trkpt lat="40.1859465" lon="44.6179138"><time>2023-03-12T08:47:24.570</time></trkpt><trkpt lat="40.1859693" lon="44.6178534"><time>2023-03-12T08:47:31.563</time></trkpt><trkpt lat="40.1859852" lon="44.6177615"><time>2023-03-12T08:47:35.560</time></trkpt><trkpt lat="40.1859969" lon="44.6176784"><time>2023-03-12T08:47:38.567</time></trkpt><trkpt lat="40.1860104" lon="44.6176198"><time>2023-03-12T08:47:41.540</time></trkpt><trkpt lat="40.1860098" lon="44.6175509"><time>2023-03-12T08:47:45.567</time></trkpt><trkpt lat="40.1860084" lon="44.6175452"><time>2023-03-12T08:47:48.180</time></trkpt><trkpt lat="40.1860042" lon="44.6176098"><time>2023-03-12T08:47:56.560</time></trkpt><trkpt lat="40.1859877" lon="44.6176703"><time>2023-03-12T08:48:01.567</time></trkpt><trkpt lat="40.1859883" lon="44.6177297"><time>2023-03-12T08:48:17.567</time></trkpt><trkpt lat="40.1859809" lon="44.6177894"><time>2023-03-12T08:48:39.570</time></trkpt><trkpt lat="40.1859671" lon="44.6178579"><time>2023-03-12T08:48:43.557</time></trkpt><trkpt lat="40.1859663" lon="44.6179180"><time>2023-03-12T08:51:08.587</time></trkpt><trkpt lat="40.1859350" lon="44.6179717"><time>2023-03-12T08:51:11.570</time></trkpt><trkpt lat="40.1858994" lon="44.6180108"><time>2023-03-12T08:51:14.583</time></trkpt><trkpt lat="40.1858554" lon="44.6180310"><time>2023-03-12T08:51:27.543</time></trkpt><trkpt lat="40.1858217" lon="44.6179792"><time>2023-03-12T08:52:44.563</time></trkpt><trkpt lat="40.1857980" lon="44.6179265"><time>2023-03-12T08:52:47.573</time></trkpt><trkpt lat="40.1857783" lon="44.6178712"><time>2023-03-12T08:52:50.567</time></trkpt><trkpt lat="40.1857499" lon="44.6178154"><time>2023-03-12T08:52:53.563</time></trkpt><trkpt lat="40.1857197" lon="44.6177539"><time>2023-03-12T08:52:56.563</time></trkpt><trkpt lat="40.1856788" lon="44.6177188"><time>2023-03-12T08:52:59.570</time></trkpt><trkpt lat="40.1856349" lon="44.6176818"><time>2023-03-12T08:53:03.590</time></trkpt><trkpt lat="40.1855814" lon="44.6176640"><time>2023-03-12T08:53:07.570</time></trkpt><trkpt lat="40.1855291" lon="44.6176536"><time>2023-03-12T08:53:11.560</time></trkpt><trkpt lat="40.1854802" lon="44.6176653"><time>2023-03-12T08:53:15.577</time></trkpt><trkpt lat="40.1854472" lon="44.6177120"><time>2023-03-12T08:53:18.573</time></trkpt><trkpt lat="40.1854195" lon="44.6177646"><time>2023-03-12T08:53:21.557</time></trkpt><trkpt lat="40.1853870" lon="44.6178216"><time>2023-03-12T08:53:25.577</time></trkpt><trkpt lat="40.1853544" lon="44.6178649"><time>2023-03-12T08:53:28.597</time></trkpt><trkpt lat="40.1853316" lon="44.6179195"><time>2023-03-12T08:53:31.577</time></trkpt><trkpt lat="40.1853084" lon="44.6179703"><time>2023-03-12T08:53:34.563</time></trkpt><trkpt lat="40.1852852" lon="44.6180390"><time>2023-03-12T08:53:38.563</time></trkpt><trkpt lat="40.1852641" lon="44.6181044"><time>2023-03-12T08:53:42.560</time></trkpt><trkpt lat="40.1852485" lon="44.6181688"><time>2023-03-12T08:53:46.557</time></trkpt><trkpt lat="40.1852346" lon="44.6182303"><time>2023-03-12T08:53:50.567</time></trkpt><trkpt lat="40.1852227" lon="44.6182874"><time>2023-03-12T08:53:55.587</time></trkpt><trkpt lat="40.1852327" lon="44.6183587"><time>2023-03-12T08:54:00.570</time></trkpt><trkpt lat="40.1852619" lon="44.6184229"><time>2023-03-12T08:54:06.567</time></trkpt><trkpt lat="40.1852942" lon="44.6184746"><time>2023-03-12T08:54:11.577</time></trkpt><trkpt lat="40.1853201" lon="44.6185296"><time>2023-03-12T08:54:15.567</time></trkpt><trkpt lat="40.1853488" lon="44.6185827"><time>2023-03-12T08:54:20.563</time></trkpt><trkpt lat="40.1853711" lon="44.6186543"><time>2023-03-12T08:54:23.560</time></trkpt><trkpt lat="40.1853810" lon="44.6187147"><time>2023-03-12T08:54:26.567</time></trkpt><trkpt lat="40.1853791" lon="44.6187933"><time>2023-03-12T08:54:29.577</time></trkpt><trkpt lat="40.1853648" lon="44.6188508"><time>2023-03-12T08:54:32.587</time></trkpt><trkpt lat="40.1853462" lon="44.6189124"><time>2023-03-12T08:54:36.557</time></trkpt><trkpt lat="40.1853393" lon="44.6189770"><time>2023-03-12T08:54:40.570</time></trkpt><trkpt lat="40.1853476" lon="44.6190455"><time>2023-03-12T08:54:44.563</time></trkpt><trkpt lat="40.1853277" lon="44.6191122"><time>2023-03-12T08:54:52.570</time></trkpt><trkpt lat="40.1853085" lon="44.6191730"><time>2023-03-12T08:54:55.567</time></trkpt><trkpt lat="40.1852752" lon="44.6192331"><time>2023-03-12T08:54:59.563</time></trkpt><trkpt lat="40.1852642" lon="44.6193087"><time>2023-03-12T08:55:02.550</time></trkpt><trkpt lat="40.1852382" lon="44.6193610"><time>2023-03-12T08:55:05.563</time></trkpt><trkpt lat="40.1852477" lon="44.6194281"><time>2023-03-12T08:55:08.587</time></trkpt><trkpt lat="40.1852118" lon="44.6194830"><time>2023-03-12T08:55:13.563</time></trkpt><trkpt lat="40.1851881" lon="44.6195492"><time>2023-03-12T08:55:17.563</time></trkpt><trkpt lat="40.1851820" lon="44.6196074"><time>2023-03-12T08:55:21.547</time></trkpt><trkpt lat="40.1851881" lon="44.6196765"><time>2023-03-12T08:55:23.583</time></trkpt><trkpt lat="40.1851717" lon="44.6197406"><time>2023-03-12T08:55:26.567</time></trkpt><trkpt lat="40.1851338" lon="44.6197923"><time>2023-03-12T08:55:30.587</time></trkpt><trkpt lat="40.1850877" lon="44.6198229"><time>2023-03-12T08:55:33.567</time></trkpt><trkpt lat="40.1850587" lon="44.6198691"><time>2023-03-12T08:55:36.563</time></trkpt><trkpt lat="40.1850083" lon="44.6199428"><time>2023-03-12T08:55:39.563</time></trkpt><trkpt lat="40.1849899" lon="44.6200013"><time>2023-03-12T08:55:45.550</time></trkpt><trkpt lat="40.1849966" lon="44.6200158"><time>2023-03-12T08:55:53.397</time></trkpt><trkpt lat="40.1849777" lon="44.6200650"><time>2023-03-12T08:56:08.560</time></trkpt><trkpt lat="40.1849519" lon="44.6201163"><time>2023-03-12T08:56:12.580</time></trkpt><trkpt lat="40.1849239" lon="44.6201744"><time>2023-03-12T08:56:16.570</time></trkpt><trkpt lat="40.1848980" lon="44.6202269"><time>2023-03-12T08:56:20.587</time></trkpt><trkpt lat="40.1848765" lon="44.6202834"><time>2023-03-12T08:56:23.590</time></trkpt><trkpt lat="40.1848586" lon="44.6203394"><time>2023-03-12T08:56:26.563</time></trkpt><trkpt lat="40.1848342" lon="44.6203965"><time>2023-03-12T08:56:29.583</time></trkpt><trkpt lat="40.1848194" lon="44.6204688"><time>2023-03-12T08:56:32.567</time></trkpt><trkpt lat="40.1848104" lon="44.6205452"><time>2023-03-12T08:56:36.570</time></trkpt><trkpt lat="40.1848206" lon="44.6206194"><time>2023-03-12T08:56:40.567</time></trkpt><trkpt lat="40.1848341" lon="44.6206760"><time>2023-03-12T08:56:43.567</time></trkpt><trkpt lat="40.1848618" lon="44.6207377"><time>2023-03-12T08:56:47.563</time></trkpt><trkpt lat="40.1848904" lon="44.6207981"><time>2023-03-12T08:56:52.567</time></trkpt><trkpt lat="40.1849338" lon="44.6208267"><time>2023-03-12T08:56:56.563</time></trkpt><trkpt lat="40.1849823" lon="44.6208716"><time>2023-03-12T08:57:01.567</time></trkpt><trkpt lat="40.1850202" lon="44.6209062"><time>2023-03-12T08:57:04.567</time></trkpt><trkpt lat="40.1850626" lon="44.6209269"><time>2023-03-12T08:57:08.570</time></trkpt><trkpt lat="40.1851017" lon="44.6209645"><time>2023-03-12T08:57:12.563</time></trkpt><trkpt lat="40.1851477" lon="44.6209858"><time>2023-03-12T08:57:15.567</time></trkpt><trkpt lat="40.1851919" lon="44.6210087"><time>2023-03-12T08:57:18.567</time></trkpt><trkpt lat="40.1852399" lon="44.6210286"><time>2023-03-12T08:57:22.567</time></trkpt><trkpt lat="40.1852847" lon="44.6210542"><time>2023-03-12T08:57:25.580</time></trkpt><trkpt lat="40.1853292" lon="44.6210778"><time>2023-03-12T08:57:28.563</time></trkpt><trkpt lat="40.1853743" lon="44.6211141"><time>2023-03-12T08:57:31.573</time></trkpt><trkpt lat="40.1854045" lon="44.6211636"><time>2023-03-12T08:57:35.560</time></trkpt><trkpt lat="40.1854415" lon="44.6212201"><time>2023-03-12T08:57:40.593</time></trkpt><trkpt lat="40.1854600" lon="44.6212765"><time>2023-03-12T08:57:45.577</time></trkpt><trkpt lat="40.1855041" lon="44.6213136"><time>2023-03-12T08:57:52.567</time></trkpt><trkpt lat="40.1855641" lon="44.6213099"><time>2023-03-12T08:57:57.573</time></trkpt><trkpt lat="40.1856160" lon="44.6213473"><time>2023-03-12T08:58:01.563</time></trkpt><trkpt lat="40.1856373" lon="44.6213999"><time>2023-03-12T08:58:03.567</time></trkpt><trkpt lat="40.1856540" lon="44.6214617"><time>2023-03-12T08:58:06.560</time></trkpt><trkpt lat="40.1856579" lon="44.6215381"><time>2023-03-12T08:58:10.540</time></trkpt><trkpt lat="40.1856367" lon="44.6214767"><time>2023-03-12T08:58:27.577</time></trkpt><trkpt lat="40.1856172" lon="44.6214201"><time>2023-03-12T08:58:31.590</time></trkpt><trkpt lat="40.1856306" lon="44.6213513"><time>2023-03-12T08:58:34.577</time></trkpt><trkpt lat="40.1856543" lon="44.6212870"><time>2023-03-12T08:58:37.563</time></trkpt><trkpt lat="40.1856847" lon="44.6212315"><time>2023-03-12T08:58:40.567</time></trkpt><trkpt lat="40.1857072" lon="44.6211792"><time>2023-03-12T08:58:43.577</time></trkpt><trkpt lat="40.1857138" lon="44.6211120"><time>2023-03-12T08:58:46.570</time></trkpt><trkpt lat="40.1857259" lon="44.6210157"><time>2023-03-12T08:58:49.567</time></trkpt><trkpt lat="40.1857476" lon="44.6209479"><time>2023-03-12T08:58:50.583</time></trkpt><trkpt lat="40.1857673" lon="44.6208827"><time>2023-03-12T08:58:51.557</time></trkpt><trkpt lat="40.1858027" lon="44.6208255"><time>2023-03-12T08:58:53.587</time></trkpt><trkpt lat="40.1858306" lon="44.6207717"><time>2023-03-12T08:58:56.560</time></trkpt><trkpt lat="40.1858433" lon="44.6207710"><time>2023-03-12T08:59:15.320</time></trkpt><trkpt lat="40.1858073" lon="44.6208260"><time>2023-03-12T08:59:22.573</time></trkpt><trkpt lat="40.1857822" lon="44.6208900"><time>2023-03-12T08:59:27.567</time></trkpt><trkpt lat="40.1857808" lon="44.6209619"><time>2023-03-12T08:59:32.587</time></trkpt><trkpt lat="40.1857720" lon="44.6210307"><time>2023-03-12T08:59:41.573</time></trkpt><trkpt lat="40.1857688" lon="44.6211003"><time>2023-03-12T08:59:47.573</time></trkpt><trkpt lat="40.1857609" lon="44.6211627"><time>2023-03-12T08:59:51.570</time></trkpt><trkpt lat="40.1857484" lon="44.6212316"><time>2023-03-12T08:59:55.543</time></trkpt><trkpt lat="40.1857126" lon="44.6212735"><time>2023-03-12T08:59:58.570</time></trkpt><trkpt lat="40.1856803" lon="44.6213182"><time>2023-03-12T09:00:01.563</time></trkpt><trkpt lat="40.1856465" lon="44.6213661"><time>2023-03-12T09:00:05.587</time></trkpt><trkpt lat="40.1855879" lon="44.6213941"><time>2023-03-12T09:00:09.567</time></trkpt><trkpt lat="40.1855433" lon="44.6213735"><time>2023-03-12T09:00:13.567</time></trkpt><trkpt lat="40.1854962" lon="44.6213823"><time>2023-03-12T09:00:16.593</time></trkpt><trkpt lat="40.1854525" lon="44.6213433"><time>2023-03-12T09:00:21.570</time></trkpt><trkpt lat="40.1854177" lon="44.6212914"><time>2023-03-12T09:00:24.573</time></trkpt><trkpt lat="40.1853653" lon="44.6212644"><time>2023-03-12T09:00:29.597</time></trkpt><trkpt lat="40.1853203" lon="44.6212372"><time>2023-03-12T09:00:32.563</time></trkpt><trkpt lat="40.1852770" lon="44.6212113"><time>2023-03-12T09:00:36.567</time></trkpt><trkpt lat="40.1852333" lon="44.6211882"><time>2023-03-12T09:00:40.570</time></trkpt><trkpt lat="40.1851988" lon="44.6211394"><time>2023-03-12T09:00:45.560</time></trkpt><trkpt lat="40.1851512" lon="44.6211384"><time>2023-03-12T09:00:51.570</time></trkpt><trkpt lat="40.1851166" lon="44.6211888"><time>2023-03-12T09:00:55.573</time></trkpt><trkpt lat="40.1850757" lon="44.6212478"><time>2023-03-12T09:01:01.560</time></trkpt><trkpt lat="40.1850407" lon="44.6212948"><time>2023-03-12T09:01:04.560</time></trkpt><trkpt lat="40.1850132" lon="44.6213622"><time>2023-03-12T09:01:08.563</time></trkpt><trkpt lat="40.1849875" lon="44.6214339"><time>2023-03-12T09:01:12.577</time></trkpt><trkpt lat="40.1849643" lon="44.6214889"><time>2023-03-12T09:01:15.570</time></trkpt><trkpt lat="40.1849188" lon="44.6215517"><time>2023-03-12T09:01:18.573</time></trkpt><trkpt lat="40.1848823" lon="44.6215948"><time>2023-03-12T09:01:21.573</time></trkpt><trkpt lat="40.1848385" lon="44.6216115"><time>2023-03-12T09:01:28.570</time></trkpt><trkpt lat="40.1847934" lon="44.6215933"><time>2023-03-12T09:01:31.567</time></trkpt><trkpt lat="40.1848095" lon="44.6215314"><time>2023-03-12T09:01:36.583</time></trkpt><trkpt lat="40.1848368" lon="44.6214835"><time>2023-03-12T09:01:43.550</time></trkpt><trkpt lat="40.1848317" lon="44.6215439"><time>2023-03-12T09:01:54.570</time></trkpt><trkpt lat="40.1848121" lon="44.6216007"><time>2023-03-12T09:02:00.563</time></trkpt><trkpt lat="40.1847812" lon="44.6216539"><time>2023-03-12T09:02:04.567</time></trkpt><trkpt lat="40.1847523" lon="44.6217006"><time>2023-03-12T09:02:08.570</time></trkpt><trkpt lat="40.1846757" lon="44.6217383"><time>2023-03-12T09:02:13.567</time></trkpt><trkpt lat="40.1846252" lon="44.6217600"><time>2023-03-12T09:02:15.567</time></trkpt><trkpt lat="40.1845833" lon="44.6217971"><time>2023-03-12T09:02:18.550</time></trkpt><trkpt lat="40.1845300" lon="44.6218239"><time>2023-03-12T09:02:20.567</time></trkpt><trkpt lat="40.1844850" lon="44.6218523"><time>2023-03-12T09:02:23.577</time></trkpt><trkpt lat="40.1844388" lon="44.6218820"><time>2023-03-12T09:02:27.547</time></trkpt><trkpt lat="40.1843936" lon="44.6218923"><time>2023-03-12T09:02:30.567</time></trkpt><trkpt lat="40.1843472" lon="44.6219131"><time>2023-03-12T09:02:33.567</time></trkpt><trkpt lat="40.1842960" lon="44.6219145"><time>2023-03-12T09:02:36.550</time></trkpt><trkpt lat="40.1842465" lon="44.6219142"><time>2023-03-12T09:02:40.577</time></trkpt><trkpt lat="40.1842152" lon="44.6218687"><time>2023-03-12T09:02:43.573</time></trkpt><trkpt lat="40.1841789" lon="44.6218042"><time>2023-03-12T09:02:45.560</time></trkpt><trkpt lat="40.1841375" lon="44.6217746"><time>2023-03-12T09:02:47.567</time></trkpt><trkpt lat="40.1841069" lon="44.6217031"><time>2023-03-12T09:02:49.567</time></trkpt><trkpt lat="40.1841097" lon="44.6217009"><time>2023-03-12T09:02:51.350</time></trkpt><trkpt lat="40.1841537" lon="44.6217153"><time>2023-03-12T09:03:04.567</time></trkpt><trkpt lat="40.1841939" lon="44.6217576"><time>2023-03-12T09:03:08.557</time></trkpt><trkpt lat="40.1842250" lon="44.6218015"><time>2023-03-12T09:03:11.580</time></trkpt><trkpt lat="40.1842476" lon="44.6218763"><time>2023-03-12T09:03:14.567</time></trkpt><trkpt lat="40.1842387" lon="44.6219339"><time>2023-03-12T09:03:17.573</time></trkpt><trkpt lat="40.1842031" lon="44.6219702"><time>2023-03-12T09:03:21.560</time></trkpt><trkpt lat="40.1841762" lon="44.6220283"><time>2023-03-12T09:03:28.583</time></trkpt><trkpt lat="40.1841561" lon="44.6220808"><time>2023-03-12T09:03:32.563</time></trkpt><trkpt lat="40.1841165" lon="44.6221342"><time>2023-03-12T09:03:36.567</time></trkpt><trkpt lat="40.1840727" lon="44.6221709"><time>2023-03-12T09:03:40.587</time></trkpt><trkpt lat="40.1840750" lon="44.6222378"><time>2023-03-12T09:03:44.570</time></trkpt><trkpt lat="40.1840956" lon="44.6222921"><time>2023-03-12T09:03:49.567</time></trkpt><trkpt lat="40.1841287" lon="44.6223430"><time>2023-03-12T09:03:54.583</time></trkpt><trkpt lat="40.1841584" lon="44.6223931"><time>2023-03-12T09:03:59.587</time></trkpt><trkpt lat="40.1841968" lon="44.6224322"><time>2023-03-12T09:04:24.547</time></trkpt><trkpt lat="40.1842497" lon="44.6224236"><time>2023-03-12T09:04:28.570</time></trkpt><trkpt lat="40.1843049" lon="44.6224184"><time>2023-03-12T09:04:31.583</time></trkpt><trkpt lat="40.1843512" lon="44.6224294"><time>2023-03-12T09:04:34.583</time></trkpt><trkpt lat="40.1843945" lon="44.6224516"><time>2023-03-12T09:04:46.573</time></trkpt><trkpt lat="40.1844207" lon="44.6225147"><time>2023-03-12T09:04:51.590</time></trkpt><trkpt lat="40.1844136" lon="44.6225828"><time>2023-03-12T09:04:54.583</time></trkpt><trkpt lat="40.1844213" lon="44.6226646"><time>2023-03-12T09:04:57.567</time></trkpt><trkpt lat="40.1844189" lon="44.6227399"><time>2023-03-12T09:05:00.563</time></trkpt><trkpt lat="40.1844189" lon="44.6228030"><time>2023-03-12T09:05:02.587</time></trkpt><trkpt lat="40.1844063" lon="44.6228879"><time>2023-03-12T09:05:05.577</time></trkpt><trkpt lat="40.1843914" lon="44.6229544"><time>2023-03-12T09:05:07.563</time></trkpt><trkpt lat="40.1843690" lon="44.6230337"><time>2023-03-12T09:05:10.583</time></trkpt><trkpt lat="40.1843457" lon="44.6230917"><time>2023-03-12T09:05:13.570</time></trkpt><trkpt lat="40.1843405" lon="44.6231549"><time>2023-03-12T09:05:16.570</time></trkpt><trkpt lat="40.1843466" lon="44.6232163"><time>2023-03-12T09:05:19.563</time></trkpt><trkpt lat="40.1843424" lon="44.6232821"><time>2023-03-12T09:05:22.570</time></trkpt><trkpt lat="40.1843205" lon="44.6233427"><time>2023-03-12T09:05:25.557</time></trkpt><trkpt lat="40.1843205" lon="44.6234025"><time>2023-03-12T09:05:28.563</time></trkpt><trkpt lat="40.1843274" lon="44.6234854"><time>2023-03-12T09:05:32.587</time></trkpt><trkpt lat="40.1843240" lon="44.6235530"><time>2023-03-12T09:05:35.557</time></trkpt><trkpt lat="40.1842908" lon="44.6235953"><time>2023-03-12T09:05:38.573</time></trkpt><trkpt lat="40.1842798" lon="44.6236646"><time>2023-03-12T09:05:43.557</time></trkpt><trkpt lat="40.1842924" lon="44.6237449"><time>2023-03-12T09:05:47.567</time></trkpt><trkpt lat="40.1843104" lon="44.6238071"><time>2023-03-12T09:05:51.570</time></trkpt><trkpt lat="40.1843255" lon="44.6238715"><time>2023-03-12T09:05:54.577</time></trkpt><trkpt lat="40.1843627" lon="44.6239081"><time>2023-03-12T09:05:57.580</time></trkpt><trkpt lat="40.1844070" lon="44.6239200"><time>2023-03-12T09:05:59.597</time></trkpt><trkpt lat="40.1844682" lon="44.6239388"><time>2023-03-12T09:06:02.583</time></trkpt><trkpt lat="40.1845288" lon="44.6239768"><time>2023-03-12T09:06:04.583</time></trkpt><trkpt lat="40.1845905" lon="44.6240178"><time>2023-03-12T09:06:06.597</time></trkpt><trkpt lat="40.1845985" lon="44.6240133"><time>2023-03-12T09:06:07.890</time></trkpt><trkpt lat="40.1845474" lon="44.6239978"><time>2023-03-12T09:06:32.590</time></trkpt><trkpt lat="40.1845338" lon="44.6240571"><time>2023-03-12T09:06:42.563</time></trkpt><trkpt lat="40.1845077" lon="44.6241069"><time>2023-03-12T09:06:47.563</time></trkpt><trkpt lat="40.1844645" lon="44.6240768"><time>2023-03-12T09:06:55.557</time></trkpt><trkpt lat="40.1844234" lon="44.6240499"><time>2023-03-12T09:06:58.587</time></trkpt><trkpt lat="40.1844590" lon="44.6240884"><time>2023-03-12T09:07:16.587</time></trkpt><trkpt lat="40.1844312" lon="44.6241462"><time>2023-03-12T09:07:23.580</time></trkpt><trkpt lat="40.1843980" lon="44.6242004"><time>2023-03-12T09:07:26.587</time></trkpt><trkpt lat="40.1843506" lon="44.6242502"><time>2023-03-12T09:07:29.583</time></trkpt><trkpt lat="40.1843144" lon="44.6242982"><time>2023-03-12T09:07:32.570</time></trkpt><trkpt lat="40.1842717" lon="44.6243327"><time>2023-03-12T09:07:35.567</time></trkpt><trkpt lat="40.1842608" lon="44.6244014"><time>2023-03-12T09:07:37.560</time></trkpt><trkpt lat="40.1842465" lon="44.6244827"><time>2023-03-12T09:07:40.583</time></trkpt><trkpt lat="40.1842078" lon="44.6245403"><time>2023-03-12T09:07:43.570</time></trkpt><trkpt lat="40.1841722" lon="44.6245916"><time>2023-03-12T09:07:46.577</time></trkpt><trkpt lat="40.1841218" lon="44.6246240"><time>2023-03-12T09:07:49.573</time></trkpt><trkpt lat="40.1840817" lon="44.6246663"><time>2023-03-12T09:07:53.560</time></trkpt><trkpt lat="40.1840884" lon="44.6247415"><time>2023-03-12T09:07:56.580</time></trkpt><trkpt lat="40.1840807" lon="44.6248065"><time>2023-03-12T09:07:59.580</time></trkpt><trkpt lat="40.1840514" lon="44.6248572"><time>2023-03-12T09:08:03.570</time></trkpt><trkpt lat="40.1839973" lon="44.6248912"><time>2023-03-12T09:08:06.580</time></trkpt><trkpt lat="40.1839672" lon="44.6249411"><time>2023-03-12T09:08:09.563</time></trkpt><trkpt lat="40.1839592" lon="44.6249993"><time>2023-03-12T09:08:12.583</time></trkpt><trkpt lat="40.1839552" lon="44.6250675"><time>2023-03-12T09:08:17.567</time></trkpt><trkpt lat="40.1839601" lon="44.6251366"><time>2023-03-12T09:08:21.567</time></trkpt><trkpt lat="40.1839785" lon="44.6252017"><time>2023-03-12T09:08:24.563</time></trkpt><trkpt lat="40.1839868" lon="44.6252771"><time>2023-03-12T09:08:28.577</time></trkpt><trkpt lat="40.1840012" lon="44.6253441"><time>2023-03-12T09:08:32.567</time></trkpt><trkpt lat="40.1840167" lon="44.6254051"><time>2023-03-12T09:08:35.573</time></trkpt><trkpt lat="40.1840301" lon="44.6254716"><time>2023-03-12T09:08:38.597</time></trkpt><trkpt lat="40.1840569" lon="44.6255360"><time>2023-03-12T09:08:41.573</time></trkpt><trkpt lat="40.1840700" lon="44.6255948"><time>2023-03-12T09:08:44.560</time></trkpt><trkpt lat="40.1840774" lon="44.6256573"><time>2023-03-12T09:08:47.567</time></trkpt><trkpt lat="40.1840928" lon="44.6257138"><time>2023-03-12T09:08:51.577</time></trkpt><trkpt lat="40.1840653" lon="44.6257793"><time>2023-03-12T09:08:56.567</time></trkpt><trkpt lat="40.1840429" lon="44.6258405"><time>2023-03-12T09:09:00.553</time></trkpt><trkpt lat="40.1840009" lon="44.6258910"><time>2023-03-12T09:09:05.570</time></trkpt><trkpt lat="40.1839641" lon="44.6259454"><time>2023-03-12T09:09:09.567</time></trkpt><trkpt lat="40.1839306" lon="44.6260061"><time>2023-03-12T09:09:13.573</time></trkpt><trkpt lat="40.1838911" lon="44.6260455"><time>2023-03-12T09:09:16.563</time></trkpt><trkpt lat="40.1838643" lon="44.6260973"><time>2023-03-12T09:09:20.580</time></trkpt><trkpt lat="40.1838126" lon="44.6261326"><time>2023-03-12T09:09:26.560</time></trkpt><trkpt lat="40.1837593" lon="44.6261741"><time>2023-03-12T09:09:30.580</time></trkpt><trkpt lat="40.1837090" lon="44.6261985"><time>2023-03-12T09:09:34.563</time></trkpt><trkpt lat="40.1836523" lon="44.6262026"><time>2023-03-12T09:09:38.560</time></trkpt><trkpt lat="40.1836065" lon="44.6262045"><time>2023-03-12T09:09:40.573</time></trkpt><trkpt lat="40.1835610" lon="44.6261998"><time>2023-03-12T09:09:42.567</time></trkpt><trkpt lat="40.1834947" lon="44.6261880"><time>2023-03-12T09:09:45.570</time></trkpt><trkpt lat="40.1834436" lon="44.6261926"><time>2023-03-12T09:09:48.577</time></trkpt><trkpt lat="40.1833913" lon="44.6261814"><time>2023-03-12T09:09:52.547</time></trkpt><trkpt lat="40.1833434" lon="44.6261587"><time>2023-03-12T09:09:54.543</time></trkpt><trkpt lat="40.1833367" lon="44.6260931"><time>2023-03-12T09:09:58.563</time></trkpt><trkpt lat="40.1833447" lon="44.6260302"><time>2023-03-12T09:10:01.567</time></trkpt><trkpt lat="40.1833187" lon="44.6259699"><time>2023-03-12T09:10:05.547</time></trkpt><trkpt lat="40.1833182" lon="44.6259640"><time>2023-03-12T09:10:08.273</time></trkpt><trkpt lat="40.1833101" lon="44.6260402"><time>2023-03-12T09:10:19.563</time></trkpt><trkpt lat="40.1833541" lon="44.6260747"><time>2023-03-12T09:10:52.557</time></trkpt><trkpt lat="40.1834149" lon="44.6260823"><time>2023-03-12T09:10:57.560</time></trkpt><trkpt lat="40.1834684" lon="44.6260902"><time>2023-03-12T09:11:00.563</time></trkpt><trkpt lat="40.1835262" lon="44.6261013"><time>2023-03-12T09:11:04.577</time></trkpt><trkpt lat="40.1835870" lon="44.6260969"><time>2023-03-12T09:11:08.583</time></trkpt><trkpt lat="40.1836411" lon="44.6261140"><time>2023-03-12T09:11:12.563</time></trkpt><trkpt lat="40.1836874" lon="44.6261317"><time>2023-03-12T09:11:15.557</time></trkpt><trkpt lat="40.1837283" lon="44.6261901"><time>2023-03-12T09:11:19.560</time></trkpt><trkpt lat="40.1837506" lon="44.6262688"><time>2023-03-12T09:11:22.577</time></trkpt><trkpt lat="40.1837634" lon="44.6263449"><time>2023-03-12T09:11:28.547</time></trkpt><trkpt lat="40.1837784" lon="44.6264043"><time>2023-03-12T09:11:32.543</time></trkpt><trkpt lat="40.1838100" lon="44.6264650"><time>2023-03-12T09:11:35.557</time></trkpt><trkpt lat="40.1838379" lon="44.6265154"><time>2023-03-12T09:11:38.563</time></trkpt><trkpt lat="40.1838837" lon="44.6265809"><time>2023-03-12T09:11:41.550</time></trkpt><trkpt lat="40.1839007" lon="44.6266442"><time>2023-03-12T09:11:44.550</time></trkpt><trkpt lat="40.1839351" lon="44.6266839"><time>2023-03-12T09:11:49.573</time></trkpt><trkpt lat="40.1839588" lon="44.6267466"><time>2023-03-12T09:11:51.557</time></trkpt><trkpt lat="40.1839741" lon="44.6268104"><time>2023-03-12T09:11:53.587</time></trkpt><trkpt lat="40.1839825" lon="44.6268896"><time>2023-03-12T09:11:56.580</time></trkpt><trkpt lat="40.1839917" lon="44.6269482"><time>2023-03-12T09:11:58.547</time></trkpt><trkpt lat="40.1839968" lon="44.6270346"><time>2023-03-12T09:12:01.553</time></trkpt><trkpt lat="40.1839797" lon="44.6271087"><time>2023-03-12T09:12:04.567</time></trkpt><trkpt lat="40.1839694" lon="44.6271708"><time>2023-03-12T09:12:07.547</time></trkpt><trkpt lat="40.1839454" lon="44.6272487"><time>2023-03-12T09:12:10.580</time></trkpt><trkpt lat="40.1839375" lon="44.6273336"><time>2023-03-12T09:12:13.550</time></trkpt><trkpt lat="40.1839198" lon="44.6274017"><time>2023-03-12T09:12:16.557</time></trkpt><trkpt lat="40.1838738" lon="44.6274641"><time>2023-03-12T09:12:21.550</time></trkpt><trkpt lat="40.1838398" lon="44.6275037"><time>2023-03-12T09:12:24.557</time></trkpt><trkpt lat="40.1838136" lon="44.6275670"><time>2023-03-12T09:12:28.573</time></trkpt><trkpt lat="40.1837841" lon="44.6276126"><time>2023-03-12T09:12:30.560</time></trkpt><trkpt lat="40.1837592" lon="44.6276629"><time>2023-03-12T09:12:35.550</time></trkpt><trkpt lat="40.1837043" lon="44.6276697"><time>2023-03-12T09:12:44.573</time></trkpt><trkpt lat="40.1836569" lon="44.6276572"><time>2023-03-12T09:12:48.547</time></trkpt><trkpt lat="40.1836085" lon="44.6276491"><time>2023-03-12T09:12:52.627</time></trkpt><trkpt lat="40.1835698" lon="44.6276145"><time>2023-03-12T09:12:56.563</time></trkpt><trkpt lat="40.1835285" lon="44.6275665"><time>2023-03-12T09:13:00.577</time></trkpt><trkpt lat="40.1834850" lon="44.6275304"><time>2023-03-12T09:13:04.573</time></trkpt><trkpt lat="40.1834402" lon="44.6274866"><time>2023-03-12T09:13:09.563</time></trkpt><trkpt lat="40.1834072" lon="44.6274329"><time>2023-03-12T09:13:12.567</time></trkpt><trkpt lat="40.1833810" lon="44.6273702"><time>2023-03-12T09:13:15.593</time></trkpt><trkpt lat="40.1833444" lon="44.6273266"><time>2023-03-12T09:13:19.567</time></trkpt><trkpt lat="40.1833159" lon="44.6272734"><time>2023-03-12T09:13:22.557</time></trkpt><trkpt lat="40.1832794" lon="44.6272222"><time>2023-03-12T09:13:28.553</time></trkpt><trkpt lat="40.1832583" lon="44.6271653"><time>2023-03-12T09:13:32.560</time></trkpt><trkpt lat="40.1832314" lon="44.6271093"><time>2023-03-12T09:13:36.543</time></trkpt><trkpt lat="40.1832124" lon="44.6270375"><time>2023-03-12T09:13:40.577</time></trkpt><trkpt lat="40.1831911" lon="44.6269722"><time>2023-03-12T09:13:45.573</time></trkpt><trkpt lat="40.1831864" lon="44.6269060"><time>2023-03-12T09:13:50.547</time></trkpt><trkpt lat="40.1831471" lon="44.6268608"><time>2023-03-12T09:14:07.577</time></trkpt><trkpt lat="40.1830982" lon="44.6268337"><time>2023-03-12T09:14:11.567</time></trkpt><trkpt lat="40.1830393" lon="44.6268256"><time>2023-03-12T09:14:15.557</time></trkpt><trkpt lat="40.1830142" lon="44.6267717"><time>2023-03-12T09:14:18.557</time></trkpt><trkpt lat="40.1829982" lon="44.6267111"><time>2023-03-12T09:14:21.587</time></trkpt><trkpt lat="40.1829860" lon="44.6266326"><time>2023-03-12T09:14:29.567</time></trkpt><trkpt lat="40.1829620" lon="44.6265603"><time>2023-03-12T09:14:33.570</time></trkpt><trkpt lat="40.1829767" lon="44.6265037"><time>2023-03-12T09:14:37.557</time></trkpt><trkpt lat="40.1829934" lon="44.6264176"><time>2023-03-12T09:14:48.567</time></trkpt><trkpt lat="40.1830161" lon="44.6263667"><time>2023-03-12T09:14:56.567</time></trkpt><trkpt lat="40.1830356" lon="44.6262845"><time>2023-03-12T09:14:59.577</time></trkpt><trkpt lat="40.1830615" lon="44.6262323"><time>2023-03-12T09:15:01.570</time></trkpt><trkpt lat="40.1831002" lon="44.6261639"><time>2023-03-12T09:15:04.570</time></trkpt><trkpt lat="40.1831343" lon="44.6261202"><time>2023-03-12T09:15:08.573</time></trkpt><trkpt lat="40.1831864" lon="44.6260789"><time>2023-03-12T09:15:11.573</time></trkpt><trkpt lat="40.1832291" lon="44.6260494"><time>2023-03-12T09:15:13.560</time></trkpt><trkpt lat="40.1832741" lon="44.6260723"><time>2023-03-12T09:15:16.587</time></trkpt><trkpt lat="40.1833243" lon="44.6260675"><time>2023-03-12T09:15:32.573</time></trkpt><trkpt lat="40.1833694" lon="44.6260600"><time>2023-03-12T09:15:35.577</time></trkpt><trkpt lat="40.1834165" lon="44.6260711"><time>2023-03-12T09:15:41.567</time></trkpt><trkpt lat="40.1834573" lon="44.6261010"><time>2023-03-12T09:15:52.563</time></trkpt><trkpt lat="40.1835122" lon="44.6260905"><time>2023-03-12T09:16:01.583</time></trkpt><trkpt lat="40.1835702" lon="44.6260940"><time>2023-03-12T09:16:05.557</time></trkpt><trkpt lat="40.1836143" lon="44.6260776"><time>2023-03-12T09:16:09.563</time></trkpt><trkpt lat="40.1836691" lon="44.6260539"><time>2023-03-12T09:16:13.563</time></trkpt><trkpt lat="40.1837273" lon="44.6260564"><time>2023-03-12T09:16:18.583</time></trkpt><trkpt lat="40.1837733" lon="44.6260558"><time>2023-03-12T09:16:20.570</time></trkpt><trkpt lat="40.1838235" lon="44.6260618"><time>2023-03-12T09:16:22.563</time></trkpt><trkpt lat="40.1838885" lon="44.6260637"><time>2023-03-12T09:16:24.570</time></trkpt><trkpt lat="40.1839576" lon="44.6260609"><time>2023-03-12T09:16:27.573</time></trkpt><trkpt lat="40.1840133" lon="44.6260495"><time>2023-03-12T09:16:30.587</time></trkpt><trkpt lat="40.1840551" lon="44.6260244"><time>2023-03-12T09:16:35.560</time></trkpt><trkpt lat="40.1840886" lon="44.6259512"><time>2023-03-12T09:16:41.577</time></trkpt><trkpt lat="40.1840998" lon="44.6258837"><time>2023-03-12T09:16:44.570</time></trkpt><trkpt lat="40.1840894" lon="44.6258141"><time>2023-03-12T09:16:47.563</time></trkpt><trkpt lat="40.1840747" lon="44.6257578"><time>2023-03-12T09:16:50.543</time></trkpt><trkpt lat="40.1840700" lon="44.6256988"><time>2023-03-12T09:16:57.560</time></trkpt><trkpt lat="40.1840485" lon="44.6256468"><time>2023-03-12T09:17:05.563</time></trkpt><trkpt lat="40.1840525" lon="44.6255656"><time>2023-03-12T09:17:11.560</time></trkpt><trkpt lat="40.1840375" lon="44.6255046"><time>2023-03-12T09:17:14.570</time></trkpt><trkpt lat="40.1840213" lon="44.6254486"><time>2023-03-12T09:17:17.567</time></trkpt><trkpt lat="40.1839988" lon="44.6253938"><time>2023-03-12T09:17:20.570</time></trkpt><trkpt lat="40.1839896" lon="44.6253285"><time>2023-03-12T09:17:23.573</time></trkpt><trkpt lat="40.1839790" lon="44.6252589"><time>2023-03-12T09:17:27.567</time></trkpt><trkpt lat="40.1839582" lon="44.6251842"><time>2023-03-12T09:17:31.570</time></trkpt><trkpt lat="40.1839493" lon="44.6251076"><time>2023-03-12T09:17:35.570</time></trkpt><trkpt lat="40.1839500" lon="44.6250424"><time>2023-03-12T09:17:38.567</time></trkpt><trkpt lat="40.1839445" lon="44.6249634"><time>2023-03-12T09:17:42.573</time></trkpt><trkpt lat="40.1839337" lon="44.6248955"><time>2023-03-12T09:17:46.573</time></trkpt><trkpt lat="40.1839125" lon="44.6248280"><time>2023-03-12T09:17:50.583</time></trkpt><trkpt lat="40.1838986" lon="44.6247677"><time>2023-03-12T09:17:53.567</time></trkpt><trkpt lat="40.1838773" lon="44.6247052"><time>2023-03-12T09:17:57.547</time></trkpt><trkpt lat="40.1838572" lon="44.6246395"><time>2023-03-12T09:18:00.580</time></trkpt><trkpt lat="40.1838457" lon="44.6245636"><time>2023-03-12T09:18:04.567</time></trkpt><trkpt lat="40.1838354" lon="44.6245034"><time>2023-03-12T09:18:08.580</time></trkpt><trkpt lat="40.1838165" lon="44.6244311"><time>2023-03-12T09:18:12.577</time></trkpt><trkpt lat="40.1837982" lon="44.6243649"><time>2023-03-12T09:18:15.567</time></trkpt><trkpt lat="40.1837774" lon="44.6243078"><time>2023-03-12T09:18:18.567</time></trkpt><trkpt lat="40.1837393" lon="44.6242619"><time>2023-03-12T09:18:21.550</time></trkpt><trkpt lat="40.1836948" lon="44.6242142"><time>2023-03-12T09:18:25.567</time></trkpt><trkpt lat="40.1836579" lon="44.6241743"><time>2023-03-12T09:18:28.567</time></trkpt><trkpt lat="40.1836258" lon="44.6241267"><time>2023-03-12T09:18:31.580</time></trkpt><trkpt lat="40.1835977" lon="44.6240787"><time>2023-03-12T09:18:34.567</time></trkpt><trkpt lat="40.1835621" lon="44.6240314"><time>2023-03-12T09:18:37.553</time></trkpt><trkpt lat="40.1835290" lon="44.6239884"><time>2023-03-12T09:18:40.577</time></trkpt><trkpt lat="40.1834911" lon="44.6239526"><time>2023-03-12T09:18:43.573</time></trkpt><trkpt lat="40.1834516" lon="44.6238919"><time>2023-03-12T09:18:47.550</time></trkpt><trkpt lat="40.1834126" lon="44.6238526"><time>2023-03-12T09:18:50.563</time></trkpt><trkpt lat="40.1833646" lon="44.6238076"><time>2023-03-12T09:18:53.560</time></trkpt><trkpt lat="40.1833315" lon="44.6237672"><time>2023-03-12T09:18:56.577</time></trkpt><trkpt lat="40.1832958" lon="44.6237238"><time>2023-03-12T09:18:59.567</time></trkpt><trkpt lat="40.1832592" lon="44.6236869"><time>2023-03-12T09:19:02.560</time></trkpt><trkpt lat="40.1832280" lon="44.6236351"><time>2023-03-12T09:19:05.580</time></trkpt><trkpt lat="40.1831847" lon="44.6235870"><time>2023-03-12T09:19:09.557</time></trkpt><trkpt lat="40.1831405" lon="44.6235532"><time>2023-03-12T09:19:13.593</time></trkpt><trkpt lat="40.1830981" lon="44.6235151"><time>2023-03-12T09:19:16.577</time></trkpt><trkpt lat="40.1830468" lon="44.6234731"><time>2023-03-12T09:19:19.563</time></trkpt><trkpt lat="40.1829935" lon="44.6234315"><time>2023-03-12T09:19:22.570</time></trkpt><trkpt lat="40.1829563" lon="44.6233914"><time>2023-03-12T09:19:25.567</time></trkpt><trkpt lat="40.1829558" lon="44.6233292"><time>2023-03-12T09:19:29.573</time></trkpt><trkpt lat="40.1829484" lon="44.6232708"><time>2023-03-12T09:19:34.570</time></trkpt><trkpt lat="40.1829234" lon="44.6232162"><time>2023-03-12T09:19:37.590</time></trkpt><trkpt lat="40.1829060" lon="44.6231533"><time>2023-03-12T09:19:40.583</time></trkpt><trkpt lat="40.1828691" lon="44.6231090"><time>2023-03-12T09:19:44.560</time></trkpt><trkpt lat="40.1828185" lon="44.6230748"><time>2023-03-12T09:19:47.557</time></trkpt><trkpt lat="40.1827764" lon="44.6230426"><time>2023-03-12T09:19:50.570</time></trkpt><trkpt lat="40.1827232" lon="44.6230330"><time>2023-03-12T09:19:55.567</time></trkpt><trkpt lat="40.1826820" lon="44.6230567"><time>2023-03-12T09:19:58.583</time></trkpt><trkpt lat="40.1826314" lon="44.6230596"><time>2023-03-12T09:20:02.573</time></trkpt><trkpt lat="40.1826130" lon="44.6229941"><time>2023-03-12T09:20:09.570</time></trkpt><trkpt lat="40.1825934" lon="44.6229315"><time>2023-03-12T09:20:21.573</time></trkpt><trkpt lat="40.1825502" lon="44.6228875"><time>2023-03-12T09:20:38.583</time></trkpt></trkseg></trk></gpx>